PAC1547 NZCH-FIMP
Flight info
| Callsign | PAC1547 |
|---|---|
| Flight time | N/A |
| Altitude | 32000 |
| Route | GUPUT Y266 QN Q188 ISDUP DCT 48S160E 50S153E 51S144E 52S135E/N0491F340 52S126E 52S117E 50S109E 48S101E/N0487F360 46S093E 43S087E 40S081E 37S075E/N0492F380 33S070E 29S065E 25S061E DCT ETGOR FFLAC1 |
| Aircraft | B748/H-SDE3FGHIM1M2RWXY/LB1 |
Departure
| Time | N/A |
|---|---|
| Airport | Christchurch International Airport (NZCH) |
Arrival
| Time | 2026-05-04 04:24 |
|---|---|
| Airport | Sir Seewoosagur Ramgoolam International Airport (FIMP) |
| Time | Latitude | Longitude | Altitude | Speed | Heading |
|---|---|---|---|---|---|
| 2026-05-03 20:15 | -52.01225 | 125.66427 | 33702 ft | 408 kts | 269° |
| 2026-05-03 20:15 | -52.01548 | 125.57252 | 33697 ft | 405 kts | 269° |
| 2026-05-03 20:16 | -52.01862 | 125.48084 | 33696 ft | 408 kts | 269° |
| 2026-05-03 20:16 | -52.02169 | 125.39018 | 33703 ft | 405 kts | 269° |
| 2026-05-03 20:17 | -52.02472 | 125.29838 | 33704 ft | 405 kts | 270° |
| 2026-05-03 20:17 | -52.02762 | 125.20742 | 33716 ft | 407 kts | 270° |
| 2026-05-03 20:18 | -52.03044 | 125.11597 | 33691 ft | 404 kts | 270° |
| 2026-05-03 20:18 | -52.03322 | 125.02340 | 33705 ft | 408 kts | 269° |
| 2026-05-03 20:19 | -52.03593 | 124.93198 | 33699 ft | 405 kts | 270° |
| 2026-05-03 20:19 | -52.03854 | 124.84051 | 33696 ft | 408 kts | 269° |
| 2026-05-03 20:20 | -52.04110 | 124.74918 | 33710 ft | 405 kts | 270° |
| 2026-05-03 20:20 | -52.04361 | 124.65740 | 33691 ft | 407 kts | 270° |
| 2026-05-03 20:21 | -52.04601 | 124.56631 | 33723 ft | 407 kts | 270° |
| 2026-05-03 20:21 | -52.04839 | 124.47467 | 33716 ft | 406 kts | 270° |
| 2026-05-03 20:22 | -52.05067 | 124.38242 | 33704 ft | 406 kts | 270° |
| 2026-05-03 20:22 | -52.05285 | 124.29082 | 33723 ft | 409 kts | 270° |
| 2026-05-03 20:23 | -52.05497 | 124.19978 | 33725 ft | 406 kts | 271° |
| 2026-05-03 20:23 | -52.05703 | 124.10735 | 33711 ft | 408 kts | 271° |
| 2026-05-03 20:24 | -52.05903 | 124.01595 | 33714 ft | 409 kts | 271° |
| 2026-05-03 20:24 | -52.06094 | 123.92432 | 33703 ft | 405 kts | 271° |
| 2026-05-03 20:25 | -52.06280 | 123.83193 | 33702 ft | 408 kts | 271° |
| 2026-05-03 20:25 | -52.06457 | 123.74061 | 33699 ft | 407 kts | 271° |
| 2026-05-03 20:26 | -52.06627 | 123.64920 | 33688 ft | 405 kts | 271° |
| 2026-05-03 20:26 | -52.06789 | 123.55733 | 33690 ft | 405 kts | 271° |
| 2026-05-03 20:27 | -52.06945 | 123.46590 | 33684 ft | 406 kts | 271° |
| 2026-05-03 20:27 | -52.07095 | 123.37511 | 33689 ft | 406 kts | 271° |
| 2026-05-03 20:28 | -52.07238 | 123.28330 | 33699 ft | 403 kts | 271° |
| 2026-05-03 20:28 | -52.07371 | 123.19216 | 33694 ft | 404 kts | 272° |
| 2026-05-03 20:29 | -52.07497 | 123.10120 | 33704 ft | 405 kts | 272° |
| 2026-05-03 20:29 | -52.07616 | 123.01059 | 33696 ft | 401 kts | 271° |
| 2026-05-03 20:30 | -52.07727 | 122.91991 | 33695 ft | 403 kts | 271° |
| 2026-05-03 20:30 | -52.07833 | 122.82896 | 33706 ft | 406 kts | 272° |
| 2026-05-03 20:31 | -52.07933 | 122.73782 | 33717 ft | 401 kts | 271° |
| 2026-05-03 20:31 | -52.08024 | 122.64718 | 33701 ft | 405 kts | 271° |
| 2026-05-03 20:32 | -52.08109 | 122.55616 | 33703 ft | 404 kts | 272° |
| 2026-05-03 20:32 | -52.08186 | 122.46513 | 33697 ft | 401 kts | 272° |
| 2026-05-03 20:33 | -52.08258 | 122.37373 | 33688 ft | 406 kts | 271° |
| 2026-05-03 20:33 | -52.08321 | 122.28288 | 33695 ft | 403 kts | 272° |
| 2026-05-03 20:34 | -52.08377 | 122.19160 | 33690 ft | 405 kts | 272° |
| 2026-05-03 20:34 | -52.08427 | 122.10081 | 33700 ft | 403 kts | 272° |
| 2026-05-03 20:35 | -52.08470 | 122.00887 | 33689 ft | 403 kts | 272° |
| 2026-05-03 20:35 | -52.08504 | 121.91801 | 33696 ft | 405 kts | 272° |
| 2026-05-03 20:36 | -52.08534 | 121.82674 | 33688 ft | 404 kts | 272° |
| 2026-05-03 20:36 | -52.08556 | 121.73571 | 33693 ft | 403 kts | 272° |
| 2026-05-03 20:37 | -52.08568 | 121.64384 | 33682 ft | 407 kts | 272° |
| 2026-05-03 20:37 | -52.08577 | 121.55254 | 33693 ft | 407 kts | 272° |
| 2026-05-03 20:38 | -52.08578 | 121.46127 | 33682 ft | 406 kts | 272° |
| 2026-05-03 20:38 | -52.08573 | 121.36898 | 33673 ft | 405 kts | 273° |
| 2026-05-03 20:39 | -52.08557 | 121.27747 | 33683 ft | 407 kts | 273° |
| 2026-05-03 20:39 | -52.08536 | 121.18604 | 33692 ft | 408 kts | 273° |
| 2026-05-03 20:40 | -52.08508 | 121.09422 | 33674 ft | 407 kts | 274° |
| 2026-05-03 20:40 | -52.08474 | 121.00243 | 33675 ft | 405 kts | 274° |
| 2026-05-03 20:41 | -52.08431 | 120.91041 | 33689 ft | 407 kts | 273° |
| 2026-05-03 20:41 | -52.08380 | 120.81902 | 33701 ft | 409 kts | 273° |
| 2026-05-03 20:42 | -52.08325 | 120.72688 | 33689 ft | 408 kts | 273° |
| 2026-05-03 20:42 | -52.08261 | 120.63463 | 33687 ft | 406 kts | 273° |
| 2026-05-03 20:43 | -52.08190 | 120.54279 | 33688 ft | 408 kts | 273° |
| 2026-05-03 20:43 | -52.08112 | 120.45116 | 33689 ft | 409 kts | 274° |
| 2026-05-03 20:44 | -52.08027 | 120.35912 | 33691 ft | 407 kts | 274° |
| 2026-05-03 20:44 | -52.07935 | 120.26761 | 33692 ft | 407 kts | 274° |
| 2026-05-03 20:45 | -52.07833 | 120.17526 | 33688 ft | 406 kts | 274° |
| 2026-05-03 20:45 | -52.07726 | 120.08350 | 33691 ft | 409 kts | 274° |
| 2026-05-03 20:46 | -52.07614 | 119.99168 | 33692 ft | 405 kts | 274° |
| 2026-05-03 20:46 | -52.07493 | 119.89992 | 33692 ft | 409 kts | 274° |
| 2026-05-03 20:47 | -52.07366 | 119.80782 | 33697 ft | 409 kts | 274° |
| 2026-05-03 20:47 | -52.07232 | 119.71611 | 33693 ft | 408 kts | 274° |
| 2026-05-03 20:48 | -52.07089 | 119.62377 | 33686 ft | 407 kts | 274° |
| 2026-05-03 20:48 | -52.06940 | 119.53174 | 33685 ft | 409 kts | 274° |
| 2026-05-03 20:49 | -52.06783 | 119.43995 | 33679 ft | 410 kts | 274° |
| 2026-05-03 20:49 | -52.06617 | 119.34713 | 33674 ft | 408 kts | 275° |
| 2026-05-03 20:50 | -52.06446 | 119.25520 | 33681 ft | 412 kts | 274° |
| 2026-05-03 20:50 | -52.06266 | 119.16251 | 33687 ft | 409 kts | 275° |
| 2026-05-03 20:51 | -52.06081 | 119.07034 | 33692 ft | 410 kts | 275° |
| 2026-05-03 20:51 | -52.05885 | 118.97784 | 33705 ft | 411 kts | 274° |
| 2026-05-03 20:52 | -52.05685 | 118.88557 | 33682 ft | 410 kts | 274° |
| 2026-05-03 20:52 | -52.05476 | 118.79253 | 33693 ft | 413 kts | 274° |
| 2026-05-03 20:53 | -52.05261 | 118.70026 | 33686 ft | 410 kts | 274° |
| 2026-05-03 20:53 | -52.05036 | 118.60735 | 33681 ft | 410 kts | 274° |
| 2026-05-03 20:54 | -52.04804 | 118.51450 | 33695 ft | 414 kts | 275° |
| 2026-05-03 20:54 | -52.04443 | 118.37553 | 33685 ft | 412 kts | 274° |
| 2026-05-03 20:55 | -52.04194 | 118.28267 | 33688 ft | 412 kts | 275° |
| 2026-05-03 20:55 | -52.03935 | 118.18913 | 33693 ft | 416 kts | 275° |
| 2026-05-03 20:56 | -52.03670 | 118.09596 | 33698 ft | 416 kts | 275° |
| 2026-05-03 20:56 | -52.03399 | 118.00284 | 33687 ft | 412 kts | 275° |
| 2026-05-03 20:57 | -52.03119 | 117.90949 | 33695 ft | 415 kts | 275° |
| 2026-05-03 20:57 | -52.02829 | 117.81588 | 33698 ft | 416 kts | 275° |
| 2026-05-03 20:58 | -52.02536 | 117.72269 | 33692 ft | 414 kts | 275° |
| 2026-05-03 20:58 | -52.02233 | 117.62914 | 33685 ft | 417 kts | 275° |
| 2026-05-03 20:59 | -52.01924 | 117.53602 | 33680 ft | 413 kts | 275° |
| 2026-05-03 20:59 | -52.01606 | 117.44244 | 33681 ft | 415 kts | 274° |
| 2026-05-03 21:00 | -52.01339 | 117.36541 | 33676 ft | 413 kts | 274° |
| 2026-05-03 21:00 | -52.00953 | 117.25710 | 33687 ft | 411 kts | 275° |
| 2026-05-03 21:01 | -52.00612 | 117.16387 | 33698 ft | 413 kts | 275° |
| 2026-05-03 21:01 | -52.00270 | 117.07169 | 33697 ft | 414 kts | 275° |
| 2026-05-03 21:02 | -51.99600 | 116.97950 | 33705 ft | 410 kts | 283° |
| 2026-05-03 21:02 | -51.97930 | 116.89029 | 33700 ft | 416 kts | 288° |
| 2026-05-03 21:03 | -51.95957 | 116.80362 | 33714 ft | 414 kts | 288° |
| 2026-05-03 21:03 | -51.94061 | 116.71542 | 33707 ft | 411 kts | 287° |
| 2026-05-03 21:04 | -51.92220 | 116.62717 | 33715 ft | 414 kts | 287° |
| 2026-05-03 21:04 | -51.90365 | 116.53913 | 33715 ft | 414 kts | 287° |
| 2026-05-03 21:05 | -51.88503 | 116.45110 | 33725 ft | 415 kts | 287° |
| 2026-05-03 21:05 | -51.86644 | 116.36350 | 33726 ft | 414 kts | 287° |
| 2026-05-03 21:06 | -51.84766 | 116.27550 | 33734 ft | 415 kts | 288° |
| 2026-05-03 21:06 | -51.82876 | 116.18727 | 33734 ft | 415 kts | 287° |
| 2026-05-03 21:07 | -51.80978 | 116.09909 | 33728 ft | 415 kts | 287° |
| 2026-05-03 21:07 | -51.79071 | 116.01096 | 33726 ft | 417 kts | 287° |
| 2026-05-03 21:08 | -51.77166 | 115.92313 | 33724 ft | 415 kts | 287° |
| 2026-05-03 21:08 | -51.75261 | 115.83573 | 33730 ft | 416 kts | 287° |
| 2026-05-03 21:09 | -51.73348 | 115.74847 | 33729 ft | 415 kts | 287° |
| 2026-05-03 21:09 | -51.71418 | 115.66067 | 33737 ft | 416 kts | 287° |
| 2026-05-03 21:10 | -51.69489 | 115.57333 | 33722 ft | 414 kts | 287° |
| 2026-05-03 21:10 | -51.67550 | 115.48580 | 33728 ft | 414 kts | 287° |
| 2026-05-03 21:11 | -51.65622 | 115.39913 | 33719 ft | 413 kts | 287° |
| 2026-05-03 21:11 | -51.63676 | 115.31207 | 33736 ft | 413 kts | 288° |
| 2026-05-03 21:12 | -51.61731 | 115.22544 | 33734 ft | 414 kts | 287° |
| 2026-05-03 21:12 | -51.59774 | 115.13859 | 33732 ft | 413 kts | 287° |
| 2026-05-03 21:13 | -51.57807 | 115.05178 | 33737 ft | 411 kts | 287° |
| 2026-05-03 21:13 | -51.55854 | 114.96583 | 33737 ft | 414 kts | 287° |
| 2026-05-03 21:14 | -51.53894 | 114.87997 | 33730 ft | 410 kts | 287° |
| 2026-05-03 21:14 | -51.51911 | 114.79347 | 33737 ft | 408 kts | 287° |
| 2026-05-03 21:15 | -51.49942 | 114.70788 | 33737 ft | 410 kts | 287° |
| 2026-05-03 21:15 | -51.47976 | 114.62280 | 33732 ft | 411 kts | 287° |
| 2026-05-03 21:16 | -51.45985 | 114.53704 | 33743 ft | 406 kts | 287° |
| 2026-05-03 21:16 | -51.44015 | 114.45241 | 33734 ft | 407 kts | 287° |
| 2026-05-03 21:17 | -51.42027 | 114.36729 | 33749 ft | 406 kts | 287° |
| 2026-05-03 21:17 | -51.40046 | 114.28285 | 33759 ft | 406 kts | 288° |
| 2026-05-03 21:18 | -51.38054 | 114.19838 | 33761 ft | 408 kts | 288° |
| 2026-05-03 21:18 | -51.36064 | 114.11430 | 33759 ft | 405 kts | 287° |
| 2026-05-03 21:19 | -51.34064 | 114.03000 | 33762 ft | 402 kts | 288° |
| 2026-05-03 21:19 | -51.32070 | 113.94644 | 33758 ft | 403 kts | 287° |
| 2026-05-03 21:20 | -51.30064 | 113.86260 | 33760 ft | 404 kts | 287° |
| 2026-05-03 21:20 | -51.28066 | 113.77947 | 33780 ft | 404 kts | 287° |
| 2026-05-03 21:21 | -51.26053 | 113.69599 | 33758 ft | 400 kts | 286° |
| 2026-05-03 21:21 | -51.24044 | 113.61301 | 33774 ft | 403 kts | 287° |
| 2026-05-03 21:22 | -51.22041 | 113.53067 | 33764 ft | 399 kts | 286° |
| 2026-05-03 21:22 | -51.20024 | 113.44801 | 33783 ft | 401 kts | 286° |
| 2026-05-03 21:23 | -51.18008 | 113.36581 | 33774 ft | 397 kts | 286° |
| 2026-05-03 21:23 | -51.16002 | 113.28394 | 33791 ft | 402 kts | 287° |
| 2026-05-03 21:24 | -51.13984 | 113.20222 | 33808 ft | 397 kts | 286° |
| 2026-05-03 21:24 | -51.11964 | 113.12085 | 33790 ft | 396 kts | 287° |
| 2026-05-03 21:25 | -51.09952 | 113.03972 | 33803 ft | 395 kts | 286° |
| 2026-05-03 21:25 | -51.07925 | 112.95843 | 33791 ft | 395 kts | 287° |
| 2026-05-03 21:26 | -51.05913 | 112.87794 | 33767 ft | 393 kts | 287° |
| 2026-05-03 21:26 | -51.03901 | 112.79791 | 33803 ft | 390 kts | 286° |
| 2026-05-03 21:27 | -51.01885 | 112.71778 | 33804 ft | 389 kts | 287° |
| 2026-05-03 21:27 | -50.99871 | 112.63822 | 33797 ft | 392 kts | 286° |
| 2026-05-03 21:28 | -50.97847 | 112.55838 | 33777 ft | 392 kts | 286° |
| 2026-05-03 21:28 | -50.95801 | 112.47819 | 33776 ft | 387 kts | 286° |
| 2026-05-03 21:29 | -50.93785 | 112.39934 | 33790 ft | 388 kts | 286° |
| 2026-05-03 21:29 | -50.91745 | 112.31983 | 33817 ft | 390 kts | 286° |
| 2026-05-03 21:30 | -50.89691 | 112.24006 | 33812 ft | 388 kts | 286° |
| 2026-05-03 21:30 | -50.87659 | 112.16131 | 33817 ft | 388 kts | 287° |
| 2026-05-03 21:31 | -50.85611 | 112.08247 | 33809 ft | 389 kts | 286° |
| 2026-05-03 21:31 | -50.83562 | 112.00370 | 33831 ft | 386 kts | 287° |
| 2026-05-03 21:32 | -50.81516 | 111.92526 | 33817 ft | 389 kts | 286° |
| 2026-05-03 21:32 | -50.79458 | 111.84679 | 33832 ft | 387 kts | 287° |
| 2026-05-03 21:33 | -50.77393 | 111.76819 | 33840 ft | 388 kts | 287° |
| 2026-05-03 21:33 | -50.75333 | 111.69014 | 33823 ft | 384 kts | 286° |
| 2026-05-03 21:34 | -50.73272 | 111.61234 | 33815 ft | 385 kts | 285° |
| 2026-05-03 21:34 | -50.71216 | 111.53484 | 33823 ft | 386 kts | 285° |
| 2026-05-03 21:35 | -50.69146 | 111.45742 | 33818 ft | 380 kts | 285° |
| 2026-05-03 21:35 | -50.67077 | 111.37997 | 33833 ft | 383 kts | 285° |
| 2026-05-03 21:36 | -50.65007 | 111.30276 | 33834 ft | 380 kts | 287° |
| 2026-05-03 21:36 | -50.62938 | 111.22589 | 33859 ft | 382 kts | 286° |
| 2026-05-03 21:37 | -50.60854 | 111.14879 | 33874 ft | 384 kts | 285° |
| 2026-05-03 21:37 | -50.58785 | 111.07256 | 33851 ft | 383 kts | 286° |
| 2026-05-03 21:38 | -50.56700 | 110.99583 | 33845 ft | 379 kts | 285° |
| 2026-05-03 21:38 | -50.54634 | 110.92007 | 33855 ft | 380 kts | 285° |
| 2026-05-03 21:39 | -50.52547 | 110.84378 | 33844 ft | 377 kts | 285° |
| 2026-05-03 21:39 | -50.50461 | 110.76765 | 33866 ft | 381 kts | 286° |
| 2026-05-03 21:40 | -50.48368 | 110.69184 | 33834 ft | 377 kts | 286° |
| 2026-05-03 21:40 | -50.46284 | 110.61645 | 33849 ft | 378 kts | 286° |
| 2026-05-03 21:41 | -50.44183 | 110.54065 | 33826 ft | 377 kts | 286° |
| 2026-05-03 21:41 | -50.42076 | 110.46487 | 33851 ft | 378 kts | 285° |
| 2026-05-03 21:42 | -50.39983 | 110.38990 | 33847 ft | 377 kts | 285° |
| 2026-05-03 21:42 | -50.37878 | 110.31470 | 33871 ft | 381 kts | 286° |
| 2026-05-03 21:43 | -50.35761 | 110.23920 | 33893 ft | 381 kts | 287° |
| 2026-05-03 21:43 | -50.33642 | 110.16407 | 33877 ft | 378 kts | 287° |
| 2026-05-03 21:44 | -50.31520 | 110.08893 | 33861 ft | 380 kts | 287° |
| 2026-05-03 21:44 | -50.29387 | 110.01386 | 33864 ft | 377 kts | 286° |
| 2026-05-03 21:45 | -50.27260 | 109.93892 | 33865 ft | 377 kts | 286° |
| 2026-05-03 21:45 | -50.25116 | 109.86373 | 33872 ft | 379 kts | 287° |
| 2026-05-03 21:46 | -50.22977 | 109.78907 | 33877 ft | 376 kts | 286° |
| 2026-05-03 21:46 | -50.20835 | 109.71461 | 33876 ft | 378 kts | 285° |
| 2026-05-03 21:47 | -50.18680 | 109.63976 | 33881 ft | 378 kts | 285° |
| 2026-05-03 21:47 | -50.16537 | 109.56548 | 33898 ft | 376 kts | 287° |
| 2026-05-03 21:48 | -50.14381 | 109.49106 | 33889 ft | 378 kts | 286° |
| 2026-05-03 21:48 | -50.12231 | 109.41704 | 33889 ft | 378 kts | 285° |
| 2026-05-03 21:49 | -50.10055 | 109.34222 | 33895 ft | 380 kts | 287° |
| 2026-05-03 21:49 | -50.07888 | 109.26814 | 33914 ft | 375 kts | 287° |
| 2026-05-03 21:50 | -50.05712 | 109.19388 | 33916 ft | 379 kts | 287° |
| 2026-05-03 21:50 | -50.03543 | 109.12026 | 33904 ft | 377 kts | 287° |
| 2026-05-03 21:51 | -50.01354 | 109.04601 | 33915 ft | 378 kts | 287° |
| 2026-05-03 21:51 | -49.99311 | 108.97131 | 33904 ft | 371 kts | 282° |
| 2026-05-03 21:52 | -49.97727 | 108.89529 | 33899 ft | 366 kts | 281° |
| 2026-05-03 21:52 | -49.96216 | 108.81960 | 33907 ft | 371 kts | 281° |
| 2026-05-03 21:53 | -49.94638 | 108.74347 | 33912 ft | 370 kts | 281° |
| 2026-05-03 21:53 | -49.93058 | 108.66803 | 33913 ft | 368 kts | 281° |
| 2026-05-03 21:54 | -49.91476 | 108.59268 | 33901 ft | 369 kts | 281° |
| 2026-05-03 21:54 | -49.89879 | 108.51683 | 33918 ft | 371 kts | 281° |
| 2026-05-03 21:55 | -49.88276 | 108.44140 | 33912 ft | 368 kts | 280° |
| 2026-05-03 21:55 | -49.86681 | 108.36597 | 33907 ft | 370 kts | 280° |
| 2026-05-03 21:56 | -49.85064 | 108.29041 | 33940 ft | 373 kts | 282° |
| 2026-05-03 21:56 | -49.83453 | 108.21519 | 33941 ft | 370 kts | 282° |
| 2026-05-03 21:57 | -49.81827 | 108.13924 | 33932 ft | 369 kts | 281° |
| 2026-05-03 21:57 | -49.80206 | 108.06432 | 33936 ft | 369 kts | 282° |
| 2026-05-03 21:58 | -49.78559 | 107.98827 | 33943 ft | 372 kts | 282° |
| 2026-05-03 21:58 | -49.76915 | 107.91262 | 33934 ft | 368 kts | 282° |
| 2026-05-03 21:59 | -49.75282 | 107.83781 | 33932 ft | 369 kts | 281° |
| 2026-05-03 21:59 | -49.73637 | 107.76244 | 33942 ft | 372 kts | 281° |
| 2026-05-03 22:00 | -49.71988 | 107.68751 | 33940 ft | 368 kts | 281° |
| 2026-05-03 22:00 | -49.70338 | 107.61269 | 33932 ft | 370 kts | 281° |
| 2026-05-03 22:01 | -49.68678 | 107.53765 | 33931 ft | 367 kts | 281° |
| 2026-05-03 22:01 | -49.67022 | 107.46305 | 33931 ft | 367 kts | 281° |
| 2026-05-03 22:02 | -49.65346 | 107.38804 | 33931 ft | 367 kts | 281° |
| 2026-05-03 22:02 | -49.63679 | 107.31355 | 33964 ft | 369 kts | 282° |
| 2026-05-03 22:03 | -49.61996 | 107.23852 | 33958 ft | 369 kts | 282° |
| 2026-05-03 22:03 | -49.60327 | 107.16471 | 33955 ft | 369 kts | 281° |
| 2026-05-03 22:04 | -49.58646 | 107.09033 | 33977 ft | 370 kts | 282° |
| 2026-05-03 22:04 | -49.56959 | 107.01610 | 33952 ft | 368 kts | 282° |
| 2026-05-03 22:05 | -49.55262 | 106.94145 | 33964 ft | 370 kts | 282° |
| 2026-05-03 22:05 | -49.53560 | 106.86706 | 33970 ft | 371 kts | 281° |
| 2026-05-03 22:06 | -49.51846 | 106.79250 | 33953 ft | 368 kts | 281° |
| 2026-05-03 22:06 | -49.50130 | 106.71790 | 33946 ft | 372 kts | 282° |
| 2026-05-03 22:07 | -49.48412 | 106.64342 | 33941 ft | 370 kts | 282° |
| 2026-05-03 22:07 | -49.46685 | 106.56891 | 33956 ft | 373 kts | 282° |
| 2026-05-03 22:08 | -49.44957 | 106.49455 | 33955 ft | 371 kts | 282° |
| 2026-05-03 22:08 | -49.43209 | 106.41965 | 33958 ft | 374 kts | 282° |
| 2026-05-03 22:09 | -49.41447 | 106.34479 | 33966 ft | 374 kts | 282° |
| 2026-05-03 22:10 | -49.38810 | 106.23277 | 33968 ft | 371 kts | 282° |
| 2026-05-03 22:10 | -49.37049 | 106.15814 | 33970 ft | 373 kts | 282° |
| 2026-05-03 22:11 | -49.35287 | 106.08353 | 33967 ft | 373 kts | 282° |
| 2026-05-03 22:11 | -49.33507 | 106.00865 | 33967 ft | 372 kts | 283° |
| 2026-05-03 22:12 | -49.31726 | 105.93420 | 33971 ft | 374 kts | 283° |
| 2026-05-03 22:12 | -49.29934 | 105.85944 | 33963 ft | 375 kts | 282° |
| 2026-05-03 22:13 | -49.28140 | 105.78490 | 33966 ft | 372 kts | 283° |
| 2026-05-03 22:13 | -49.26349 | 105.71057 | 33966 ft | 376 kts | 283° |
| 2026-05-03 22:14 | -49.24535 | 105.63564 | 33977 ft | 376 kts | 282° |
| 2026-05-03 22:14 | -49.22717 | 105.56070 | 33974 ft | 375 kts | 283° |
| 2026-05-03 22:15 | -49.20905 | 105.48645 | 33966 ft | 376 kts | 282° |
| 2026-05-03 22:15 | -49.19082 | 105.41169 | 33973 ft | 376 kts | 283° |
| 2026-05-03 22:16 | -49.17240 | 105.33678 | 33977 ft | 380 kts | 283° |
| 2026-05-03 22:16 | -49.15388 | 105.26167 | 34003 ft | 378 kts | 283° |
| 2026-05-03 22:17 | -49.13536 | 105.18671 | 33994 ft | 377 kts | 283° |
| 2026-05-03 22:17 | -49.11694 | 105.11221 | 33996 ft | 377 kts | 283° |
| 2026-05-03 22:18 | -49.09832 | 105.03730 | 33982 ft | 378 kts | 283° |
| 2026-05-03 22:18 | -49.07978 | 104.96294 | 33990 ft | 379 kts | 283° |
| 2026-05-03 22:19 | -49.06094 | 104.88757 | 33980 ft | 376 kts | 284° |
| 2026-05-03 22:19 | -49.04223 | 104.81313 | 33985 ft | 378 kts | 283° |
| 2026-05-03 22:20 | -49.02345 | 104.73865 | 34000 ft | 378 kts | 283° |
| 2026-05-03 22:20 | -49.00468 | 104.66450 | 33998 ft | 377 kts | 283° |
| 2026-05-03 22:21 | -48.98576 | 104.58971 | 34019 ft | 380 kts | 283° |
| 2026-05-03 22:21 | -48.96689 | 104.51559 | 34010 ft | 376 kts | 284° |
| 2026-05-03 22:22 | -48.94787 | 104.44102 | 34006 ft | 378 kts | 284° |
| 2026-05-03 22:22 | -48.92885 | 104.36684 | 34018 ft | 378 kts | 284° |
| 2026-05-03 22:23 | -48.90968 | 104.29229 | 34052 ft | 381 kts | 284° |
| 2026-05-03 22:23 | -48.89057 | 104.21829 | 34045 ft | 377 kts | 284° |
| 2026-05-03 22:24 | -48.87149 | 104.14428 | 34036 ft | 378 kts | 284° |
| 2026-05-03 22:24 | -48.85215 | 104.06958 | 34027 ft | 379 kts | 284° |
| 2026-05-03 22:25 | -48.83282 | 103.99531 | 34033 ft | 379 kts | 285° |
| 2026-05-03 22:25 | -48.81338 | 103.92101 | 34042 ft | 380 kts | 285° |
| 2026-05-03 22:26 | -48.79394 | 103.84679 | 34040 ft | 380 kts | 285° |
| 2026-05-03 22:26 | -48.77447 | 103.77254 | 34038 ft | 382 kts | 284° |
| 2026-05-03 22:27 | -48.75488 | 103.69833 | 34035 ft | 383 kts | 284° |
| 2026-05-03 22:27 | -48.73514 | 103.62356 | 34043 ft | 382 kts | 284° |
| 2026-05-03 22:28 | -48.71528 | 103.54884 | 34031 ft | 382 kts | 284° |
| 2026-05-03 22:28 | -48.69551 | 103.47480 | 34022 ft | 379 kts | 284° |
| 2026-05-03 22:29 | -48.67571 | 103.40044 | 34042 ft | 383 kts | 284° |
| 2026-05-03 22:29 | -48.65573 | 103.32585 | 34056 ft | 385 kts | 285° |
| 2026-05-03 22:30 | -48.63559 | 103.25095 | 34047 ft | 385 kts | 285° |
| 2026-05-03 22:30 | -48.61549 | 103.17648 | 34045 ft | 383 kts | 285° |
| 2026-05-03 22:31 | -48.59530 | 103.10174 | 34059 ft | 387 kts | 285° |
| 2026-05-03 22:31 | -48.57486 | 103.02673 | 34056 ft | 384 kts | 285° |
| 2026-05-03 22:32 | -48.55460 | 102.95205 | 34069 ft | 388 kts | 285° |
| 2026-05-03 22:32 | -48.53416 | 102.87741 | 34059 ft | 384 kts | 285° |
| 2026-05-03 22:33 | -48.51377 | 102.80306 | 34065 ft | 390 kts | 285° |
| 2026-05-03 22:33 | -48.49317 | 102.72824 | 34045 ft | 385 kts | 286° |
| 2026-05-03 22:34 | -48.47256 | 102.65340 | 34060 ft | 389 kts | 285° |
| 2026-05-03 22:34 | -48.45195 | 102.57884 | 34058 ft | 388 kts | 285° |
| 2026-05-03 22:35 | -48.43111 | 102.50365 | 34062 ft | 390 kts | 286° |
| 2026-05-03 22:35 | -48.41029 | 102.42893 | 34058 ft | 386 kts | 285° |
| 2026-05-03 22:36 | -48.38942 | 102.35404 | 34062 ft | 392 kts | 285° |
| 2026-05-03 22:36 | -48.36827 | 102.27866 | 34077 ft | 391 kts | 286° |
| 2026-05-03 22:37 | -48.34711 | 102.20314 | 34083 ft | 392 kts | 287° |
| 2026-05-03 22:37 | -48.32595 | 102.12826 | 34083 ft | 389 kts | 287° |
| 2026-05-03 22:38 | -48.30481 | 102.05341 | 34078 ft | 391 kts | 286° |
| 2026-05-03 22:38 | -48.28347 | 101.97813 | 34080 ft | 393 kts | 287° |
| 2026-05-03 22:39 | -48.26207 | 101.90302 | 34079 ft | 393 kts | 287° |
| 2026-05-03 22:39 | -48.24053 | 101.82752 | 34070 ft | 394 kts | 286° |
| 2026-05-03 22:40 | -48.21891 | 101.75203 | 34066 ft | 393 kts | 286° |
| 2026-05-03 22:40 | -48.19746 | 101.67725 | 34073 ft | 395 kts | 286° |
| 2026-05-03 22:41 | -48.17568 | 101.60177 | 34075 ft | 395 kts | 286° |
| 2026-05-03 22:41 | -48.15381 | 101.52615 | 34069 ft | 395 kts | 286° |
| 2026-05-03 22:42 | -48.13199 | 101.45079 | 34076 ft | 397 kts | 287° |
| 2026-05-03 22:42 | -48.10995 | 101.37519 | 34073 ft | 397 kts | 286° |
| 2026-05-03 22:43 | -48.08785 | 101.29926 | 34090 ft | 400 kts | 287° |
| 2026-05-03 22:43 | -48.06571 | 101.22369 | 34080 ft | 397 kts | 287° |
| 2026-05-03 22:44 | -48.04351 | 101.14779 | 34091 ft | 398 kts | 287° |
| 2026-05-03 22:44 | -48.02131 | 101.07232 | 34092 ft | 401 kts | 288° |
| 2026-05-03 22:45 | -47.99925 | 100.99657 | 34088 ft | 394 kts | 284° |
| 2026-05-03 22:45 | -47.98262 | 100.91859 | 34096 ft | 396 kts | 282° |
| 2026-05-03 22:46 | -47.96651 | 100.84031 | 34093 ft | 394 kts | 282° |
| 2026-05-03 22:46 | -47.95027 | 100.76230 | 34090 ft | 398 kts | 282° |
| 2026-05-03 22:47 | -47.93373 | 100.68343 | 34091 ft | 396 kts | 282° |
| 2026-05-03 22:47 | -47.91720 | 100.60478 | 34094 ft | 398 kts | 282° |
| 2026-05-03 22:48 | -47.90065 | 100.52600 | 34101 ft | 398 kts | 282° |
| 2026-05-03 22:48 | -47.88405 | 100.44801 | 34094 ft | 398 kts | 282° |
| 2026-05-03 22:49 | -47.86716 | 100.36861 | 34099 ft | 403 kts | 282° |
| 2026-05-03 22:49 | -47.85036 | 100.28993 | 34108 ft | 399 kts | 283° |
| 2026-05-03 22:50 | -47.83339 | 100.21066 | 34109 ft | 400 kts | 282° |
| 2026-05-03 22:50 | -47.81642 | 100.13194 | 34121 ft | 404 kts | 282° |
| 2026-05-03 22:51 | -47.79935 | 100.05312 | 34114 ft | 401 kts | 282° |
| 2026-05-03 22:51 | -47.78211 | 99.97379 | 34111 ft | 404 kts | 283° |
| 2026-05-03 22:52 | -47.76478 | 99.89420 | 34109 ft | 404 kts | 283° |
| 2026-05-03 22:52 | -47.74745 | 99.81503 | 34102 ft | 402 kts | 282° |
| 2026-05-03 22:53 | -47.73021 | 99.73646 | 34107 ft | 403 kts | 283° |
| 2026-05-03 22:53 | -47.71275 | 99.65706 | 34109 ft | 404 kts | 283° |
| 2026-05-03 22:54 | -47.69532 | 99.57831 | 34100 ft | 405 kts | 283° |
| 2026-05-03 22:54 | -47.67768 | 99.49890 | 34105 ft | 404 kts | 283° |
| 2026-05-03 22:55 | -47.65989 | 99.41910 | 34111 ft | 408 kts | 282° |
| 2026-05-03 22:55 | -47.64220 | 99.34021 | 34113 ft | 407 kts | 283° |
| 2026-05-03 22:56 | -47.62429 | 99.26052 | 34123 ft | 407 kts | 283° |
| 2026-05-03 22:56 | -47.60640 | 99.18103 | 34112 ft | 405 kts | 283° |
| 2026-05-03 22:57 | -47.58847 | 99.10162 | 34123 ft | 408 kts | 284° |
| 2026-05-03 22:57 | -47.57043 | 99.02204 | 34118 ft | 409 kts | 283° |
| 2026-05-03 22:58 | -47.55237 | 98.94277 | 34127 ft | 408 kts | 284° |
| 2026-05-03 22:58 | -47.53420 | 98.86340 | 34110 ft | 405 kts | 284° |
| 2026-05-03 22:59 | -47.51609 | 98.78454 | 34123 ft | 408 kts | 284° |
| 2026-05-03 22:59 | -47.49776 | 98.70510 | 34122 ft | 409 kts | 284° |
| 2026-05-03 23:00 | -47.47929 | 98.62543 | 34125 ft | 412 kts | 283° |
| 2026-05-03 23:00 | -47.46094 | 98.54655 | 34118 ft | 407 kts | 283° |
| 2026-05-03 23:01 | -47.44243 | 98.46702 | 34127 ft | 409 kts | 284° |
| 2026-05-03 23:01 | -47.42391 | 98.38783 | 34125 ft | 410 kts | 284° |
| 2026-05-03 23:02 | -47.40534 | 98.30877 | 34134 ft | 410 kts | 285° |
| 2026-05-03 23:02 | -47.38662 | 98.22933 | 34131 ft | 410 kts | 285° |
| 2026-05-03 23:03 | -47.36775 | 98.14959 | 34133 ft | 412 kts | 284° |
| 2026-05-03 23:03 | -47.34897 | 98.07039 | 34136 ft | 411 kts | 285° |
| 2026-05-03 23:04 | -47.32996 | 97.99048 | 34141 ft | 414 kts | 285° |
| 2026-05-03 23:04 | -47.31099 | 97.91120 | 34138 ft | 413 kts | 285° |
| 2026-05-03 23:05 | -47.29183 | 97.83127 | 34144 ft | 416 kts | 284° |
| 2026-05-03 23:05 | -47.27258 | 97.75146 | 34136 ft | 413 kts | 284° |
| 2026-05-03 23:06 | -47.25346 | 97.67219 | 34145 ft | 415 kts | 284° |
| 2026-05-03 23:06 | -47.23412 | 97.59249 | 34132 ft | 414 kts | 285° |
| 2026-05-03 23:07 | -47.21466 | 97.51257 | 34141 ft | 417 kts | 284° |
| 2026-05-03 23:07 | -47.19505 | 97.43237 | 34138 ft | 414 kts | 284° |
| 2026-05-03 23:08 | -47.17550 | 97.35272 | 34135 ft | 416 kts | 285° |
| 2026-05-03 23:08 | -47.15596 | 97.27335 | 34148 ft | 416 kts | 285° |
| 2026-05-03 23:09 | -47.13617 | 97.19319 | 34157 ft | 417 kts | 285° |
| 2026-05-03 23:09 | -47.11642 | 97.11347 | 34156 ft | 417 kts | 285° |
| 2026-05-03 23:10 | -47.09663 | 97.03383 | 34150 ft | 418 kts | 285° |
| 2026-05-03 23:10 | -47.07664 | 96.95374 | 34155 ft | 419 kts | 285° |
| 2026-05-03 23:11 | -47.05656 | 96.87358 | 34145 ft | 421 kts | 285° |
| 2026-05-03 23:11 | -47.03634 | 96.79322 | 34137 ft | 419 kts | 285° |
| 2026-05-03 23:12 | -47.01609 | 96.71282 | 34148 ft | 422 kts | 285° |
| 2026-05-03 23:12 | -46.99586 | 96.63291 | 34139 ft | 417 kts | 285° |
| 2026-05-03 23:13 | -46.97548 | 96.55249 | 34148 ft | 422 kts | 286° |
| 2026-05-03 23:13 | -46.95496 | 96.47217 | 34146 ft | 422 kts | 285° |
| 2026-05-03 23:14 | -46.93448 | 96.39213 | 34151 ft | 424 kts | 285° |
| 2026-05-03 23:14 | -46.91372 | 96.31123 | 34163 ft | 425 kts | 286° |
| 2026-05-03 23:15 | -46.89294 | 96.23061 | 34149 ft | 422 kts | 286° |
| 2026-05-03 23:15 | -46.87212 | 96.15005 | 34159 ft | 426 kts | 286° |
| 2026-05-03 23:16 | -46.85117 | 96.06927 | 34160 ft | 425 kts | 286° |
| 2026-05-03 23:16 | -46.83005 | 95.98800 | 34156 ft | 425 kts | 287° |
| 2026-05-03 23:17 | -46.80895 | 95.90743 | 34158 ft | 426 kts | 286° |
| 2026-05-03 23:17 | -46.78784 | 95.82697 | 34156 ft | 426 kts | 287° |
| 2026-05-03 23:18 | -46.76656 | 95.74604 | 34159 ft | 427 kts | 287° |
| 2026-05-03 23:18 | -46.74519 | 95.66502 | 34159 ft | 427 kts | 287° |
| 2026-05-03 23:19 | -46.72385 | 95.58447 | 34158 ft | 429 kts | 287° |
| 2026-05-03 23:19 | -46.70232 | 95.50339 | 34157 ft | 430 kts | 287° |
| 2026-05-03 23:20 | -46.68080 | 95.42268 | 34156 ft | 426 kts | 287° |
| 2026-05-03 23:20 | -46.65931 | 95.34229 | 34164 ft | 430 kts | 288° |
| 2026-05-03 23:21 | -46.63751 | 95.26113 | 34174 ft | 432 kts | 287° |
| 2026-05-03 23:21 | -46.61570 | 95.18021 | 34165 ft | 429 kts | 287° |
| 2026-05-03 23:22 | -46.58266 | 95.05807 | 34170 ft | 433 kts | 288° |
| 2026-05-03 23:22 | -46.56054 | 94.97669 | 34171 ft | 432 kts | 287° |
| 2026-05-03 23:23 | -46.53851 | 94.89590 | 34168 ft | 432 kts | 287° |
| 2026-05-03 23:23 | -46.51625 | 94.81451 | 34166 ft | 434 kts | 288° |
| 2026-05-03 23:24 | -46.49396 | 94.73344 | 34170 ft | 433 kts | 288° |
| 2026-05-03 23:24 | -46.47172 | 94.65270 | 34166 ft | 436 kts | 287° |
| 2026-05-03 23:25 | -46.44927 | 94.57151 | 34171 ft | 434 kts | 288° |
| 2026-05-03 23:25 | -46.42669 | 94.49012 | 34153 ft | 432 kts | 287° |
| 2026-05-03 23:26 | -46.40421 | 94.40926 | 34162 ft | 436 kts | 287° |
| 2026-05-03 23:26 | -46.38163 | 94.32845 | 34167 ft | 432 kts | 288° |
| 2026-05-03 23:27 | -46.35902 | 94.24768 | 34176 ft | 434 kts | 288° |
| 2026-05-03 23:27 | -46.33630 | 94.16685 | 34173 ft | 435 kts | 288° |
| 2026-05-03 23:28 | -46.31336 | 94.08553 | 34171 ft | 433 kts | 288° |
| 2026-05-03 23:28 | -46.29056 | 94.00500 | 34174 ft | 437 kts | 288° |
| 2026-05-03 23:29 | -46.26762 | 93.92422 | 34179 ft | 434 kts | 288° |
| 2026-05-03 23:29 | -46.24456 | 93.84323 | 34177 ft | 437 kts | 288° |
| 2026-05-03 23:30 | -46.22142 | 93.76217 | 34171 ft | 435 kts | 288° |
| 2026-05-03 23:30 | -46.19822 | 93.68127 | 34175 ft | 435 kts | 289° |
| 2026-05-03 23:31 | -46.17518 | 93.60112 | 34178 ft | 437 kts | 288° |
| 2026-05-03 23:31 | -46.15177 | 93.52004 | 34179 ft | 435 kts | 289° |
| 2026-05-03 23:32 | -46.12857 | 93.43993 | 34174 ft | 435 kts | 289° |
| 2026-05-03 23:32 | -46.10516 | 93.35934 | 34178 ft | 437 kts | 289° |
| 2026-05-03 23:33 | -46.08174 | 93.27895 | 34190 ft | 437 kts | 289° |
| 2026-05-03 23:33 | -46.05813 | 93.19817 | 34188 ft | 435 kts | 289° |
| 2026-05-03 23:34 | -46.03470 | 93.11821 | 34193 ft | 437 kts | 290° |
| 2026-05-03 23:34 | -46.01115 | 93.03804 | 34200 ft | 434 kts | 289° |
| 2026-05-03 23:35 | -45.98380 | 92.96067 | 34201 ft | 442 kts | 297° |
| 2026-05-03 23:35 | -45.95074 | 92.88648 | 34193 ft | 440 kts | 299° |
| 2026-05-03 23:36 | -45.91610 | 92.81363 | 34188 ft | 444 kts | 299° |
| 2026-05-03 23:36 | -45.88260 | 92.74046 | 34194 ft | 443 kts | 298° |
| 2026-05-03 23:37 | -45.84913 | 92.66677 | 34192 ft | 441 kts | 298° |
| 2026-05-03 23:37 | -45.81546 | 92.59288 | 34197 ft | 443 kts | 298° |
| 2026-05-03 23:38 | -45.78186 | 92.51935 | 34195 ft | 445 kts | 298° |
| 2026-05-03 23:38 | -45.74822 | 92.44594 | 34188 ft | 442 kts | 299° |
| 2026-05-03 23:39 | -45.71440 | 92.37224 | 34196 ft | 447 kts | 298° |
| 2026-05-03 23:39 | -45.68024 | 92.29805 | 34198 ft | 445 kts | 299° |
| 2026-05-03 23:40 | -45.64605 | 92.22399 | 34209 ft | 448 kts | 300° |
| 2026-05-03 23:40 | -45.61186 | 92.15012 | 34202 ft | 444 kts | 299° |
| 2026-05-03 23:41 | -45.57766 | 92.07638 | 34194 ft | 445 kts | 299° |
| 2026-05-03 23:41 | -45.54342 | 92.00275 | 34203 ft | 449 kts | 299° |
| 2026-05-03 23:42 | -45.50910 | 91.92914 | 34201 ft | 445 kts | 300° |
| 2026-05-03 23:42 | -45.47472 | 91.85551 | 34206 ft | 447 kts | 300° |
| 2026-05-03 23:43 | -45.44031 | 91.78210 | 34202 ft | 448 kts | 300° |
| 2026-05-03 23:43 | -45.40583 | 91.70871 | 34189 ft | 445 kts | 300° |
| 2026-05-03 23:44 | -45.37130 | 91.63541 | 34204 ft | 448 kts | 300° |
| 2026-05-03 23:44 | -45.33662 | 91.56191 | 34210 ft | 449 kts | 300° |
| 2026-05-03 23:45 | -45.30196 | 91.48871 | 34208 ft | 449 kts | 300° |
| 2026-05-03 23:45 | -45.26686 | 91.41476 | 34206 ft | 449 kts | 300° |
| 2026-05-03 23:46 | -45.23198 | 91.34149 | 34210 ft | 450 kts | 301° |
| 2026-05-03 23:46 | -45.19702 | 91.26822 | 34215 ft | 448 kts | 301° |
| 2026-05-03 23:47 | -45.16221 | 91.19545 | 34216 ft | 448 kts | 301° |
| 2026-05-03 23:47 | -45.12705 | 91.12212 | 34223 ft | 452 kts | 301° |
| 2026-05-03 23:48 | -45.09171 | 91.04863 | 34221 ft | 450 kts | 301° |
| 2026-05-03 23:48 | -45.05651 | 90.97562 | 34208 ft | 449 kts | 301° |
| 2026-05-03 23:49 | -45.02131 | 90.90282 | 34209 ft | 450 kts | 300° |
| 2026-05-03 23:49 | -44.98582 | 90.82961 | 34214 ft | 453 kts | 300° |
| 2026-05-03 23:50 | -44.95036 | 90.75658 | 34215 ft | 453 kts | 300° |
| 2026-05-03 23:50 | -44.91482 | 90.68356 | 34202 ft | 450 kts | 300° |
| 2026-05-03 23:51 | -44.87921 | 90.61062 | 34199 ft | 454 kts | 301° |
| 2026-05-03 23:51 | -44.84348 | 90.53757 | 34198 ft | 454 kts | 301° |
| 2026-05-03 23:52 | -44.80754 | 90.46431 | 34192 ft | 453 kts | 301° |
| 2026-05-03 23:52 | -44.77153 | 90.39112 | 34196 ft | 455 kts | 301° |
| 2026-05-03 23:53 | -44.73566 | 90.31844 | 34212 ft | 456 kts | 301° |
| 2026-05-03 23:53 | -44.69965 | 90.24569 | 34199 ft | 452 kts | 301° |
| 2026-05-03 23:54 | -44.66351 | 90.17273 | 34207 ft | 456 kts | 301° |
| 2026-05-03 23:54 | -44.62735 | 90.09999 | 34206 ft | 455 kts | 301° |
| 2026-05-03 23:55 | -44.59112 | 90.02728 | 34205 ft | 458 kts | 301° |
| 2026-05-03 23:55 | -44.55491 | 89.95486 | 34201 ft | 454 kts | 301° |
| 2026-05-03 23:56 | -44.51848 | 89.88204 | 34203 ft | 455 kts | 301° |
| 2026-05-03 23:56 | -44.48243 | 89.81026 | 34203 ft | 454 kts | 301° |
| 2026-05-03 23:57 | -44.44596 | 89.73778 | 34198 ft | 456 kts | 302° |
| 2026-05-03 23:57 | -44.40940 | 89.66531 | 34197 ft | 456 kts | 302° |
| 2026-05-03 23:58 | -44.37290 | 89.59314 | 34193 ft | 456 kts | 302° |
| 2026-05-03 23:58 | -44.33618 | 89.52072 | 34197 ft | 456 kts | 302° |
| 2026-05-03 23:59 | -44.29942 | 89.44842 | 34197 ft | 458 kts | 302° |
| 2026-05-03 23:59 | -44.26273 | 89.37643 | 34200 ft | 454 kts | 302° |
| 2026-05-04 00:00 | -44.22588 | 89.30428 | 34213 ft | 457 kts | 302° |
| 2026-05-04 00:00 | -44.18919 | 89.23265 | 34208 ft | 456 kts | 302° |
| 2026-05-04 00:01 | -44.15215 | 89.16048 | 34322 ft | 461 kts | 302° |
| 2026-05-04 00:01 | -44.13348 | 89.12416 | 34620 ft | 465 kts | 302° |
| 2026-05-04 00:01 | -44.11475 | 89.08776 | 35170 ft | 464 kts | 302° |
| 2026-05-04 00:02 | -44.09613 | 89.05167 | 35990 ft | 458 kts | 302° |
| 2026-05-04 00:02 | -44.07752 | 89.01566 | 36151 ft | 456 kts | 302° |
| 2026-05-04 00:02 | -44.04075 | 88.94460 | 36195 ft | 450 kts | 302° |
| 2026-05-04 00:03 | -44.00413 | 88.87402 | 36213 ft | 452 kts | 302° |
| 2026-05-04 00:03 | -43.96749 | 88.80351 | 36214 ft | 451 kts | 302° |
| 2026-05-04 00:04 | -43.93082 | 88.73308 | 36212 ft | 451 kts | 302° |
| 2026-05-04 00:04 | -43.89404 | 88.66264 | 36211 ft | 453 kts | 302° |
| 2026-05-04 00:05 | -43.85746 | 88.59278 | 36216 ft | 451 kts | 302° |
| 2026-05-04 00:05 | -43.82057 | 88.52246 | 36214 ft | 453 kts | 302° |
| 2026-05-04 00:06 | -43.78365 | 88.45231 | 36211 ft | 451 kts | 302° |
| 2026-05-04 00:06 | -43.74683 | 88.38246 | 36209 ft | 452 kts | 302° |
| 2026-05-04 00:07 | -43.70995 | 88.31267 | 36205 ft | 451 kts | 302° |
| 2026-05-04 00:07 | -43.67268 | 88.24233 | 36197 ft | 452 kts | 302° |
| 2026-05-04 00:08 | -43.63569 | 88.17269 | 36189 ft | 450 kts | 302° |
| 2026-05-04 00:08 | -43.59863 | 88.10304 | 36187 ft | 450 kts | 303° |
| 2026-05-04 00:09 | -43.56173 | 88.03390 | 36189 ft | 450 kts | 302° |
| 2026-05-04 00:09 | -43.52452 | 87.96429 | 36183 ft | 451 kts | 302° |
| 2026-05-04 00:10 | -43.48754 | 87.89532 | 36185 ft | 449 kts | 302° |
| 2026-05-04 00:10 | -43.45037 | 87.82613 | 36178 ft | 452 kts | 302° |
| 2026-05-04 00:11 | -43.41325 | 87.75722 | 36177 ft | 449 kts | 303° |
| 2026-05-04 00:11 | -43.37580 | 87.68782 | 36175 ft | 452 kts | 302° |
| 2026-05-04 00:12 | -43.33857 | 87.61900 | 36171 ft | 451 kts | 303° |
| 2026-05-04 00:12 | -43.30106 | 87.54984 | 36166 ft | 451 kts | 303° |
| 2026-05-04 00:13 | -43.26362 | 87.48096 | 36173 ft | 452 kts | 302° |
| 2026-05-04 00:13 | -43.22600 | 87.41194 | 36169 ft | 450 kts | 303° |
| 2026-05-04 00:14 | -43.18842 | 87.34310 | 36160 ft | 452 kts | 303° |
| 2026-05-04 00:14 | -43.15101 | 87.27471 | 36170 ft | 454 kts | 303° |
| 2026-05-04 00:15 | -43.11317 | 87.20579 | 36160 ft | 449 kts | 303° |
| 2026-05-04 00:15 | -43.07551 | 87.13722 | 36145 ft | 452 kts | 303° |
| 2026-05-04 00:16 | -43.03783 | 87.06877 | 36156 ft | 454 kts | 303° |
| 2026-05-04 00:16 | -42.99985 | 86.99976 | 36146 ft | 452 kts | 302° |
| 2026-05-04 00:17 | -42.96563 | 86.92832 | 36148 ft | 452 kts | 299° |
| 2026-05-04 00:17 | -42.93311 | 86.85471 | 36155 ft | 452 kts | 297° |
| 2026-05-04 00:18 | -42.90081 | 86.78181 | 36150 ft | 449 kts | 298° |
| 2026-05-04 00:18 | -42.86786 | 86.70967 | 36150 ft | 450 kts | 298° |
| 2026-05-04 00:19 | -42.83474 | 86.63730 | 36152 ft | 450 kts | 298° |
| 2026-05-04 00:19 | -42.80180 | 86.56544 | 36145 ft | 447 kts | 298° |
| 2026-05-04 00:20 | -42.76886 | 86.49369 | 36143 ft | 450 kts | 298° |
| 2026-05-04 00:20 | -42.73589 | 86.42211 | 36147 ft | 449 kts | 298° |
| 2026-05-04 00:21 | -42.70254 | 86.34983 | 36136 ft | 448 kts | 299° |
| 2026-05-04 00:21 | -42.66945 | 86.27826 | 36151 ft | 452 kts | 299° |
| 2026-05-04 00:22 | -42.63625 | 86.20670 | 36152 ft | 450 kts | 299° |
| 2026-05-04 00:22 | -42.60273 | 86.13455 | 36140 ft | 448 kts | 300° |
| 2026-05-04 00:23 | -42.56938 | 86.06297 | 36142 ft | 452 kts | 300° |
| 2026-05-04 00:23 | -42.53590 | 85.99129 | 36146 ft | 450 kts | 300° |
| 2026-05-04 00:24 | -42.50248 | 85.91992 | 36140 ft | 449 kts | 299° |
| 2026-05-04 00:24 | -42.46911 | 85.84876 | 36134 ft | 448 kts | 300° |
| 2026-05-04 00:25 | -42.43560 | 85.77748 | 36135 ft | 449 kts | 300° |
| 2026-05-04 00:25 | -42.40217 | 85.70658 | 36137 ft | 449 kts | 300° |
| 2026-05-04 00:26 | -42.36861 | 85.63557 | 36132 ft | 448 kts | 300° |
| 2026-05-04 00:26 | -42.33482 | 85.56425 | 36129 ft | 449 kts | 300° |
| 2026-05-04 00:27 | -42.30130 | 85.49370 | 36126 ft | 451 kts | 300° |
| 2026-05-04 00:27 | -42.26741 | 85.42249 | 36132 ft | 451 kts | 300° |
| 2026-05-04 00:28 | -42.23358 | 85.35156 | 36117 ft | 449 kts | 300° |
| 2026-05-04 00:28 | -42.19965 | 85.28061 | 36135 ft | 451 kts | 301° |
| 2026-05-04 00:29 | -42.16589 | 85.21018 | 36136 ft | 449 kts | 301° |
| 2026-05-04 00:29 | -42.13189 | 85.13938 | 36137 ft | 450 kts | 301° |
| 2026-05-04 00:30 | -42.09800 | 85.06906 | 36130 ft | 450 kts | 301° |
| 2026-05-04 00:30 | -42.06386 | 84.99837 | 36135 ft | 450 kts | 301° |
| 2026-05-04 00:31 | -42.02988 | 84.92812 | 36123 ft | 448 kts | 301° |
| 2026-05-04 00:31 | -41.99570 | 84.85764 | 36123 ft | 450 kts | 301° |
| 2026-05-04 00:32 | -41.96139 | 84.78706 | 36130 ft | 452 kts | 301° |
| 2026-05-04 00:32 | -41.92718 | 84.71685 | 36130 ft | 451 kts | 301° |
| 2026-05-04 00:33 | -41.87582 | 84.61175 | 36127 ft | 450 kts | 301° |
| 2026-05-04 00:34 | -41.84148 | 84.54170 | 36119 ft | 448 kts | 301° |
| 2026-05-04 00:34 | -41.80711 | 84.47171 | 36121 ft | 451 kts | 301° |
| 2026-05-04 00:35 | -41.77284 | 84.40209 | 36118 ft | 449 kts | 301° |
| 2026-05-04 00:35 | -41.73843 | 84.33240 | 36117 ft | 451 kts | 302° |
| 2026-05-04 00:36 | -41.70395 | 84.26270 | 36114 ft | 449 kts | 302° |
| 2026-05-04 00:36 | -41.66938 | 84.19289 | 36118 ft | 451 kts | 302° |
| 2026-05-04 00:37 | -41.63495 | 84.12360 | 36118 ft | 451 kts | 302° |
| 2026-05-04 00:37 | -41.60037 | 84.05419 | 36119 ft | 450 kts | 302° |
| 2026-05-04 00:38 | -41.56553 | 83.98440 | 36116 ft | 451 kts | 302° |
| 2026-05-04 00:38 | -41.53094 | 83.91529 | 36106 ft | 449 kts | 302° |
| 2026-05-04 00:39 | -41.49602 | 83.84564 | 36104 ft | 451 kts | 302° |
| 2026-05-04 00:39 | -41.46115 | 83.77623 | 36104 ft | 452 kts | 302° |
| 2026-05-04 00:40 | -41.42633 | 83.70710 | 36109 ft | 450 kts | 302° |
| 2026-05-04 00:40 | -41.39123 | 83.63760 | 36103 ft | 450 kts | 302° |
| 2026-05-04 00:41 | -41.35635 | 83.56866 | 36106 ft | 450 kts | 302° |
| 2026-05-04 00:41 | -41.32143 | 83.49978 | 36108 ft | 452 kts | 302° |
| 2026-05-04 00:42 | -41.28626 | 83.43058 | 36107 ft | 449 kts | 302° |
| 2026-05-04 00:42 | -41.25107 | 83.36150 | 36102 ft | 450 kts | 302° |
| 2026-05-04 00:43 | -41.21584 | 83.29247 | 36108 ft | 452 kts | 303° |
| 2026-05-04 00:43 | -41.18076 | 83.22400 | 36113 ft | 454 kts | 303° |
| 2026-05-04 00:44 | -41.14538 | 83.15502 | 36110 ft | 451 kts | 303° |
| 2026-05-04 00:44 | -41.10994 | 83.08604 | 36106 ft | 450 kts | 303° |
| 2026-05-04 00:45 | -41.07455 | 83.01736 | 36104 ft | 452 kts | 303° |
| 2026-05-04 00:45 | -41.03931 | 82.94910 | 36106 ft | 450 kts | 303° |
| 2026-05-04 00:46 | -41.00396 | 82.88078 | 36103 ft | 450 kts | 303° |
| 2026-05-04 00:46 | -40.96861 | 82.81265 | 36104 ft | 450 kts | 303° |
| 2026-05-04 00:47 | -40.93291 | 82.74394 | 36104 ft | 453 kts | 303° |
| 2026-05-04 00:47 | -40.89726 | 82.67548 | 36112 ft | 455 kts | 303° |
| 2026-05-04 00:48 | -40.86182 | 82.60761 | 36116 ft | 453 kts | 303° |
| 2026-05-04 00:48 | -40.82610 | 82.53934 | 36109 ft | 450 kts | 303° |
| 2026-05-04 00:49 | -40.79022 | 82.47091 | 36106 ft | 453 kts | 303° |
| 2026-05-04 00:49 | -40.75454 | 82.40303 | 36110 ft | 453 kts | 303° |
| 2026-05-04 00:50 | -40.71864 | 82.33485 | 36110 ft | 450 kts | 304° |
| 2026-05-04 00:50 | -40.68274 | 82.26681 | 36108 ft | 452 kts | 304° |
| 2026-05-04 00:51 | -40.64690 | 82.19907 | 36118 ft | 454 kts | 304° |
| 2026-05-04 00:51 | -40.61085 | 82.13107 | 36117 ft | 455 kts | 304° |
| 2026-05-04 00:52 | -40.57500 | 82.06358 | 36113 ft | 451 kts | 304° |
| 2026-05-04 00:52 | -40.53868 | 81.99533 | 36106 ft | 452 kts | 304° |
| 2026-05-04 00:53 | -40.50263 | 81.92778 | 36110 ft | 455 kts | 304° |
| 2026-05-04 00:53 | -40.46640 | 81.86002 | 36103 ft | 452 kts | 304° |
| 2026-05-04 00:54 | -40.43011 | 81.79228 | 36107 ft | 452 kts | 304° |
| 2026-05-04 00:54 | -40.39397 | 81.72501 | 36112 ft | 454 kts | 304° |
| 2026-05-04 00:55 | -40.35773 | 81.65768 | 36103 ft | 452 kts | 304° |
| 2026-05-04 00:55 | -40.32148 | 81.59045 | 36098 ft | 454 kts | 304° |
| 2026-05-04 00:56 | -40.28508 | 81.52310 | 36107 ft | 455 kts | 305° |
| 2026-05-04 00:56 | -40.24868 | 81.45591 | 36102 ft | 452 kts | 304° |
| 2026-05-04 00:57 | -40.21221 | 81.38869 | 36100 ft | 453 kts | 304° |
| 2026-05-04 00:57 | -40.17569 | 81.32155 | 36114 ft | 452 kts | 306° |
| 2026-05-04 00:58 | -40.13941 | 81.25496 | 36106 ft | 451 kts | 305° |
| 2026-05-04 00:58 | -40.10285 | 81.18800 | 36102 ft | 453 kts | 306° |
| 2026-05-04 00:59 | -40.06618 | 81.12096 | 36111 ft | 454 kts | 305° |
| 2026-05-04 00:59 | -40.02993 | 81.05476 | 36112 ft | 452 kts | 306° |
| 2026-05-04 01:00 | -39.99339 | 80.98756 | 36089 ft | 451 kts | 303° |
| 2026-05-04 01:00 | -39.96015 | 80.91857 | 36081 ft | 450 kts | 301° |
| 2026-05-04 01:01 | -39.92887 | 80.84715 | 36087 ft | 453 kts | 299° |
| 2026-05-04 01:01 | -39.89820 | 80.77582 | 36096 ft | 454 kts | 301° |
| 2026-05-04 01:02 | -39.86597 | 80.70594 | 36094 ft | 452 kts | 301° |
| 2026-05-04 01:02 | -39.83353 | 80.63581 | 36088 ft | 451 kts | 301° |
| 2026-05-04 01:03 | -39.80123 | 80.56593 | 36088 ft | 451 kts | 301° |
| 2026-05-04 01:03 | -39.76887 | 80.49599 | 36092 ft | 453 kts | 301° |
| 2026-05-04 01:04 | -39.73646 | 80.42608 | 36094 ft | 452 kts | 301° |
| 2026-05-04 01:04 | -39.70411 | 80.35635 | 36089 ft | 450 kts | 301° |
| 2026-05-04 01:05 | -39.67175 | 80.28670 | 36096 ft | 452 kts | 302° |
| 2026-05-04 01:05 | -39.63943 | 80.21732 | 36106 ft | 453 kts | 302° |
| 2026-05-04 01:06 | -39.60684 | 80.14750 | 36093 ft | 450 kts | 301° |
| 2026-05-04 01:06 | -39.57433 | 80.07799 | 36087 ft | 450 kts | 302° |
| 2026-05-04 01:07 | -39.54187 | 80.00875 | 36089 ft | 451 kts | 302° |
| 2026-05-04 01:07 | -39.50937 | 79.93954 | 36132 ft | 452 kts | 302° |
| 2026-05-04 01:07 | -39.49296 | 79.90466 | 36314 ft | 458 kts | 302° |
| 2026-05-04 01:08 | -39.47639 | 79.86951 | 36709 ft | 461 kts | 302° |
| 2026-05-04 01:08 | -39.45967 | 79.83407 | 37383 ft | 457 kts | 301° |
| 2026-05-04 01:08 | -39.44325 | 79.79929 | 38084 ft | 453 kts | 301° |
| 2026-05-04 01:09 | -39.41069 | 79.73044 | 38103 ft | 447 kts | 302° |
| 2026-05-04 01:09 | -39.37820 | 79.66184 | 38083 ft | 447 kts | 302° |
| 2026-05-04 01:10 | -39.34577 | 79.59353 | 38080 ft | 444 kts | 302° |
| 2026-05-04 01:10 | -39.31334 | 79.52539 | 38086 ft | 449 kts | 302° |
| 2026-05-04 01:11 | -39.28073 | 79.45699 | 38087 ft | 448 kts | 301° |
| 2026-05-04 01:11 | -39.24817 | 79.38885 | 38084 ft | 445 kts | 302° |
| 2026-05-04 01:12 | -39.21547 | 79.32056 | 38083 ft | 445 kts | 302° |
| 2026-05-04 01:12 | -39.18285 | 79.25261 | 38087 ft | 449 kts | 302° |
| 2026-05-04 01:13 | -39.15025 | 79.18481 | 38089 ft | 446 kts | 302° |
| 2026-05-04 01:13 | -39.11745 | 79.11677 | 38082 ft | 446 kts | 302° |
| 2026-05-04 01:14 | -39.08461 | 79.04881 | 38092 ft | 448 kts | 302° |
| 2026-05-04 01:14 | -39.05169 | 78.98081 | 38092 ft | 448 kts | 302° |
| 2026-05-04 01:15 | -39.01886 | 78.91312 | 38087 ft | 446 kts | 302° |
| 2026-05-04 01:15 | -38.98605 | 78.84561 | 38088 ft | 447 kts | 302° |
| 2026-05-04 01:16 | -38.95313 | 78.77800 | 38081 ft | 447 kts | 302° |
| 2026-05-04 01:16 | -38.92002 | 78.71019 | 38079 ft | 446 kts | 302° |
| 2026-05-04 01:17 | -38.88697 | 78.64265 | 38083 ft | 446 kts | 302° |
| 2026-05-04 01:17 | -38.85388 | 78.57513 | 38084 ft | 448 kts | 302° |
| 2026-05-04 01:18 | -38.82082 | 78.50782 | 38086 ft | 448 kts | 302° |
| 2026-05-04 01:18 | -38.78751 | 78.44019 | 38072 ft | 446 kts | 302° |
| 2026-05-04 01:19 | -38.75415 | 78.37257 | 38077 ft | 448 kts | 302° |
| 2026-05-04 01:19 | -38.72096 | 78.30541 | 38081 ft | 449 kts | 303° |
| 2026-05-04 01:20 | -38.68763 | 78.23814 | 38071 ft | 446 kts | 303° |
| 2026-05-04 01:20 | -38.65419 | 78.17081 | 38070 ft | 447 kts | 303° |
| 2026-05-04 01:21 | -38.62062 | 78.10333 | 38072 ft | 450 kts | 303° |
| 2026-05-04 01:21 | -38.58730 | 78.03647 | 38076 ft | 451 kts | 303° |
| 2026-05-04 01:22 | -38.55372 | 77.96924 | 38061 ft | 448 kts | 303° |
| 2026-05-04 01:22 | -38.52012 | 77.90210 | 38066 ft | 449 kts | 303° |
| 2026-05-04 01:23 | -38.48660 | 77.83527 | 38070 ft | 449 kts | 303° |
| 2026-05-04 01:23 | -38.45293 | 77.76833 | 38064 ft | 447 kts | 303° |
| 2026-05-04 01:24 | -38.41902 | 77.70102 | 38066 ft | 451 kts | 303° |
| 2026-05-04 01:24 | -38.38524 | 77.63413 | 38062 ft | 449 kts | 303° |
| 2026-05-04 01:25 | -38.35146 | 77.56726 | 38065 ft | 452 kts | 303° |
| 2026-05-04 01:25 | -38.31754 | 77.50034 | 38059 ft | 449 kts | 303° |
| 2026-05-04 01:26 | -38.28339 | 77.43311 | 38058 ft | 451 kts | 303° |
| 2026-05-04 01:26 | -38.24926 | 77.36606 | 38064 ft | 452 kts | 303° |
| 2026-05-04 01:27 | -38.21530 | 77.29946 | 38065 ft | 450 kts | 303° |
| 2026-05-04 01:27 | -38.18109 | 77.23253 | 38065 ft | 450 kts | 303° |
| 2026-05-04 01:28 | -38.14687 | 77.16571 | 38064 ft | 452 kts | 303° |
| 2026-05-04 01:28 | -38.11253 | 77.09878 | 37880 ft | 450 kts | 303° |
| 2026-05-04 01:28 | -38.09554 | 77.06572 | 38275 ft | 451 kts | 303° |
| 2026-05-04 01:29 | -38.07845 | 77.03247 | 37910 ft | 453 kts | 303° |
| 2026-05-04 01:29 | -38.06131 | 76.99918 | 38117 ft | 451 kts | 303° |
| 2026-05-04 01:29 | -38.04397 | 76.96553 | 38047 ft | 451 kts | 303° |
| 2026-05-04 01:29 | -38.02693 | 76.93250 | 37946 ft | 454 kts | 303° |
| 2026-05-04 01:30 | -38.00961 | 76.89897 | 38092 ft | 448 kts | 303° |
| 2026-05-04 01:30 | -37.97546 | 76.83299 | 38069 ft | 450 kts | 303° |
| 2026-05-04 01:31 | -37.94084 | 76.76619 | 38057 ft | 451 kts | 303° |
| 2026-05-04 01:31 | -37.90624 | 76.69956 | 38058 ft | 455 kts | 303° |
| 2026-05-04 01:32 | -37.87165 | 76.63314 | 38062 ft | 452 kts | 303° |
| 2026-05-04 01:32 | -37.83700 | 76.56669 | 38045 ft | 451 kts | 303° |
| 2026-05-04 01:33 | -37.80246 | 76.50054 | 38043 ft | 453 kts | 303° |
| 2026-05-04 01:33 | -37.76795 | 76.43463 | 38040 ft | 450 kts | 303° |
| 2026-05-04 01:34 | -37.73311 | 76.36824 | 38041 ft | 450 kts | 303° |
| 2026-05-04 01:34 | -37.69830 | 76.30206 | 38049 ft | 453 kts | 304° |
| 2026-05-04 01:35 | -37.66369 | 76.23631 | 38062 ft | 453 kts | 304° |
| 2026-05-04 01:35 | -37.62880 | 76.17019 | 38045 ft | 451 kts | 304° |
| 2026-05-04 01:36 | -37.59411 | 76.10458 | 38033 ft | 450 kts | 304° |
| 2026-05-04 01:36 | -37.55926 | 76.03883 | 38035 ft | 451 kts | 304° |
| 2026-05-04 01:37 | -37.52435 | 75.97310 | 38038 ft | 453 kts | 304° |
| 2026-05-04 01:37 | -37.48941 | 75.90738 | 38035 ft | 452 kts | 304° |
| 2026-05-04 01:38 | -37.45412 | 75.84117 | 38036 ft | 455 kts | 304° |
| 2026-05-04 01:38 | -37.41917 | 75.77576 | 38038 ft | 453 kts | 304° |
| 2026-05-04 01:39 | -37.38406 | 75.71016 | 38025 ft | 451 kts | 303° |
| 2026-05-04 01:39 | -37.34888 | 75.64452 | 38029 ft | 454 kts | 303° |
| 2026-05-04 01:40 | -37.31370 | 75.57900 | 38027 ft | 450 kts | 303° |
| 2026-05-04 01:40 | -37.27845 | 75.51349 | 38025 ft | 451 kts | 303° |
| 2026-05-04 01:41 | -37.24326 | 75.44825 | 38031 ft | 454 kts | 303° |
| 2026-05-04 01:41 | -37.20807 | 75.38312 | 38025 ft | 452 kts | 303° |
| 2026-05-04 01:42 | -37.17244 | 75.31728 | 38031 ft | 454 kts | 304° |
| 2026-05-04 01:42 | -37.13704 | 75.25198 | 38036 ft | 455 kts | 304° |
| 2026-05-04 01:43 | -37.10169 | 75.18690 | 38029 ft | 454 kts | 304° |
| 2026-05-04 01:43 | -37.06605 | 75.12141 | 38027 ft | 454 kts | 304° |
| 2026-05-04 01:44 | -37.03032 | 75.05583 | 38037 ft | 457 kts | 304° |
| 2026-05-04 01:44 | -36.99378 | 74.99147 | 38021 ft | 453 kts | 309° |
| 2026-05-04 01:45 | -36.95116 | 74.93319 | 38030 ft | 455 kts | 312° |
| 2026-05-04 01:45 | -36.88625 | 74.84679 | 38027 ft | 455 kts | 311° |
| 2026-05-04 01:46 | -36.84319 | 74.78926 | 38025 ft | 455 kts | 312° |
| 2026-05-04 01:46 | -36.79987 | 74.73144 | 38017 ft | 453 kts | 312° |
| 2026-05-04 01:47 | -36.75642 | 74.67349 | 38017 ft | 456 kts | 311° |
| 2026-05-04 01:47 | -36.71337 | 74.61613 | 38017 ft | 455 kts | 311° |
| 2026-05-04 01:48 | -36.67000 | 74.55840 | 38011 ft | 454 kts | 311° |
| 2026-05-04 01:48 | -36.62656 | 74.50073 | 38013 ft | 456 kts | 311° |
| 2026-05-04 01:49 | -36.58321 | 74.44320 | 38016 ft | 456 kts | 311° |
| 2026-05-04 01:49 | -36.53988 | 74.38580 | 38014 ft | 455 kts | 311° |
| 2026-05-04 01:50 | -36.49643 | 74.32837 | 38019 ft | 458 kts | 312° |
| 2026-05-04 01:50 | -36.45284 | 74.27083 | 38011 ft | 456 kts | 312° |
| 2026-05-04 01:51 | -36.40921 | 74.21333 | 38012 ft | 456 kts | 312° |
| 2026-05-04 01:51 | -36.36557 | 74.15590 | 38013 ft | 458 kts | 312° |
| 2026-05-04 01:52 | -36.32220 | 74.09892 | 38010 ft | 456 kts | 312° |
| 2026-05-04 01:52 | -36.27857 | 74.04171 | 38010 ft | 457 kts | 312° |
| 2026-05-04 01:53 | -36.23490 | 73.98455 | 38003 ft | 456 kts | 312° |
| 2026-05-04 01:53 | -36.19089 | 73.92705 | 38004 ft | 458 kts | 312° |
| 2026-05-04 01:54 | -36.14733 | 73.87026 | 38002 ft | 457 kts | 312° |
| 2026-05-04 01:54 | -36.10346 | 73.81313 | 38003 ft | 460 kts | 312° |
| 2026-05-04 01:55 | -36.05934 | 73.75578 | 37999 ft | 458 kts | 312° |
| 2026-05-04 01:55 | -36.01550 | 73.69888 | 37989 ft | 455 kts | 312° |
| 2026-05-04 01:56 | -35.97166 | 73.64206 | 37998 ft | 458 kts | 312° |
| 2026-05-04 01:56 | -35.92767 | 73.58518 | 38005 ft | 460 kts | 312° |
| 2026-05-04 01:57 | -35.88364 | 73.52837 | 38005 ft | 458 kts | 312° |
| 2026-05-04 01:57 | -35.83977 | 73.47182 | 37993 ft | 457 kts | 312° |
| 2026-05-04 01:58 | -35.79582 | 73.41524 | 38001 ft | 459 kts | 312° |
| 2026-05-04 01:58 | -35.75145 | 73.35831 | 37995 ft | 458 kts | 312° |
| 2026-05-04 01:59 | -35.70743 | 73.30183 | 37994 ft | 456 kts | 313° |
| 2026-05-04 01:59 | -35.66312 | 73.24509 | 37996 ft | 458 kts | 313° |
| 2026-05-04 02:00 | -35.61908 | 73.18883 | 38005 ft | 461 kts | 312° |
| 2026-05-04 02:00 | -35.57491 | 73.13250 | 38006 ft | 458 kts | 312° |
| 2026-05-04 02:01 | -35.53064 | 73.07613 | 37999 ft | 456 kts | 313° |
| 2026-05-04 02:01 | -35.48640 | 73.01989 | 38004 ft | 459 kts | 312° |
| 2026-05-04 02:02 | -35.44207 | 72.96362 | 38000 ft | 456 kts | 312° |
| 2026-05-04 02:02 | -35.39793 | 72.90770 | 37989 ft | 456 kts | 312° |
| 2026-05-04 02:03 | -35.35355 | 72.85153 | 37998 ft | 458 kts | 312° |
| 2026-05-04 02:03 | -35.30938 | 72.79578 | 38000 ft | 458 kts | 312° |
| 2026-05-04 02:04 | -35.26515 | 72.74003 | 37993 ft | 455 kts | 312° |
| 2026-05-04 02:04 | -35.22068 | 72.68405 | 37990 ft | 457 kts | 312° |
| 2026-05-04 02:05 | -35.17652 | 72.62854 | 38001 ft | 459 kts | 312° |
| 2026-05-04 02:05 | -35.13238 | 72.57320 | 37996 ft | 456 kts | 312° |
| 2026-05-04 02:06 | -35.08790 | 72.51749 | 37987 ft | 455 kts | 312° |
| 2026-05-04 02:06 | -35.04355 | 72.46204 | 37990 ft | 457 kts | 312° |
| 2026-05-04 02:07 | -34.99938 | 72.40691 | 37991 ft | 458 kts | 312° |
| 2026-05-04 02:07 | -34.95493 | 72.35152 | 37990 ft | 454 kts | 312° |
| 2026-05-04 02:08 | -34.91055 | 72.29630 | 37989 ft | 455 kts | 313° |
| 2026-05-04 02:08 | -34.86601 | 72.24096 | 38000 ft | 457 kts | 313° |
| 2026-05-04 02:09 | -34.82173 | 72.18607 | 37994 ft | 454 kts | 313° |
| 2026-05-04 02:09 | -34.77739 | 72.13117 | 37988 ft | 454 kts | 313° |
| 2026-05-04 02:10 | -34.73298 | 72.07629 | 37988 ft | 456 kts | 313° |
| 2026-05-04 02:10 | -34.68887 | 72.02187 | 37988 ft | 453 kts | 313° |
| 2026-05-04 02:11 | -34.64433 | 71.96699 | 37978 ft | 453 kts | 313° |
| 2026-05-04 02:11 | -34.60015 | 71.91266 | 37985 ft | 454 kts | 313° |
| 2026-05-04 02:12 | -34.55592 | 71.85832 | 37981 ft | 452 kts | 313° |
| 2026-05-04 02:12 | -34.51151 | 71.80388 | 37979 ft | 453 kts | 313° |
| 2026-05-04 02:13 | -34.46689 | 71.74927 | 37976 ft | 454 kts | 313° |
| 2026-05-04 02:13 | -34.42241 | 71.69491 | 37976 ft | 453 kts | 313° |
| 2026-05-04 02:14 | -34.37790 | 71.64061 | 37982 ft | 456 kts | 313° |
| 2026-05-04 02:14 | -34.33333 | 71.58633 | 37979 ft | 452 kts | 313° |
| 2026-05-04 02:15 | -34.28888 | 71.53226 | 37974 ft | 454 kts | 313° |
| 2026-05-04 02:15 | -34.24414 | 71.47793 | 37979 ft | 455 kts | 313° |
| 2026-05-04 02:16 | -34.19980 | 71.42417 | 37967 ft | 452 kts | 313° |
| 2026-05-04 02:16 | -34.15507 | 71.37002 | 37965 ft | 452 kts | 313° |
| 2026-05-04 02:17 | -34.11056 | 71.31624 | 37975 ft | 454 kts | 313° |
| 2026-05-04 02:17 | -34.06620 | 71.26273 | 37972 ft | 452 kts | 313° |
| 2026-05-04 02:18 | -34.02145 | 71.20877 | 37963 ft | 452 kts | 313° |
| 2026-05-04 02:18 | -33.97673 | 71.15500 | 37969 ft | 453 kts | 313° |
| 2026-05-04 02:19 | -33.93210 | 71.10139 | 37970 ft | 452 kts | 313° |
| 2026-05-04 02:19 | -33.88750 | 71.04790 | 37963 ft | 451 kts | 313° |
| 2026-05-04 02:20 | -33.84300 | 70.99464 | 37968 ft | 453 kts | 313° |
| 2026-05-04 02:20 | -33.79847 | 70.94142 | 37964 ft | 452 kts | 313° |
| 2026-05-04 02:21 | -33.75363 | 70.88791 | 37964 ft | 451 kts | 313° |
| 2026-05-04 02:21 | -33.70906 | 70.83477 | 37971 ft | 454 kts | 313° |
| 2026-05-04 02:22 | -33.66487 | 70.78219 | 37971 ft | 451 kts | 313° |
| 2026-05-04 02:22 | -33.62013 | 70.72904 | 37974 ft | 452 kts | 313° |
| 2026-05-04 02:23 | -33.57526 | 70.67583 | 37979 ft | 453 kts | 313° |
| 2026-05-04 02:23 | -33.53070 | 70.62305 | 37968 ft | 450 kts | 313° |
| 2026-05-04 02:24 | -33.48557 | 70.56966 | 37960 ft | 451 kts | 313° |
| 2026-05-04 02:24 | -33.44079 | 70.51680 | 37971 ft | 455 kts | 313° |
| 2026-05-04 02:25 | -33.39606 | 70.46403 | 37795 ft | 454 kts | 313° |
| 2026-05-04 02:25 | -33.37360 | 70.43756 | 38015 ft | 456 kts | 313° |
| 2026-05-04 02:25 | -33.35096 | 70.41095 | 37956 ft | 449 kts | 313° |
| 2026-05-04 02:26 | -33.30654 | 70.35875 | 37939 ft | 450 kts | 313° |
| 2026-05-04 02:26 | -33.26146 | 70.30582 | 37968 ft | 454 kts | 314° |
| 2026-05-04 02:27 | -33.21642 | 70.25301 | 37960 ft | 450 kts | 313° |
| 2026-05-04 02:27 | -33.17139 | 70.20030 | 37971 ft | 454 kts | 313° |
| 2026-05-04 02:28 | -33.12617 | 70.14744 | 37964 ft | 454 kts | 314° |
| 2026-05-04 02:28 | -33.08126 | 70.09499 | 37968 ft | 453 kts | 314° |
| 2026-05-04 02:29 | -33.03598 | 70.04215 | 37961 ft | 455 kts | 314° |
| 2026-05-04 02:29 | -32.99132 | 69.98940 | 37958 ft | 451 kts | 311° |
| 2026-05-04 02:30 | -32.94913 | 69.93333 | 37970 ft | 454 kts | 309° |
| 2026-05-04 02:30 | -32.90747 | 69.87730 | 37963 ft | 451 kts | 310° |
| 2026-05-04 02:31 | -32.86548 | 69.82136 | 37973 ft | 453 kts | 310° |
| 2026-05-04 02:31 | -32.82371 | 69.76582 | 37969 ft | 453 kts | 310° |
| 2026-05-04 02:32 | -32.78173 | 69.71009 | 37963 ft | 451 kts | 310° |
| 2026-05-04 02:32 | -32.73958 | 69.65417 | 38018 ft | 454 kts | 310° |
| 2026-05-04 02:33 | -32.69788 | 69.59895 | 37981 ft | 450 kts | 310° |
| 2026-05-04 02:33 | -32.65572 | 69.54322 | 37981 ft | 451 kts | 310° |
| 2026-05-04 02:34 | -32.61398 | 69.48812 | 37995 ft | 454 kts | 309° |
| 2026-05-04 02:34 | -32.57181 | 69.43256 | 37991 ft | 450 kts | 309° |
| 2026-05-04 02:35 | -32.52979 | 69.37726 | 37989 ft | 451 kts | 309° |
| 2026-05-04 02:35 | -32.48805 | 69.32240 | 38002 ft | 451 kts | 310° |
| 2026-05-04 02:36 | -32.44588 | 69.26709 | 38000 ft | 451 kts | 310° |
| 2026-05-04 02:36 | -32.40381 | 69.21196 | 37999 ft | 450 kts | 310° |
| 2026-05-04 02:37 | -32.36196 | 69.15724 | 38007 ft | 453 kts | 310° |
| 2026-05-04 02:37 | -32.31993 | 69.10236 | 37998 ft | 450 kts | 310° |
| 2026-05-04 02:38 | -32.27743 | 69.04689 | 37995 ft | 451 kts | 310° |
| 2026-05-04 02:38 | -32.23540 | 68.99214 | 38006 ft | 453 kts | 310° |
| 2026-05-04 02:39 | -32.19305 | 68.93709 | 38009 ft | 452 kts | 310° |
| 2026-05-04 02:39 | -32.15084 | 68.88229 | 38004 ft | 451 kts | 310° |
| 2026-05-04 02:40 | -32.10856 | 68.82748 | 37997 ft | 449 kts | 310° |
| 2026-05-04 02:40 | -32.06646 | 68.77296 | 38007 ft | 452 kts | 309° |
| 2026-05-04 02:41 | -32.02413 | 68.71823 | 38003 ft | 451 kts | 309° |
| 2026-05-04 02:41 | -31.98196 | 68.66380 | 37995 ft | 450 kts | 310° |
| 2026-05-04 02:42 | -31.93941 | 68.60899 | 37994 ft | 452 kts | 310° |
| 2026-05-04 02:42 | -31.89718 | 68.55466 | 38000 ft | 451 kts | 310° |
| 2026-05-04 02:43 | -31.85488 | 68.50028 | 37992 ft | 449 kts | 310° |
| 2026-05-04 02:43 | -31.81244 | 68.44581 | 37997 ft | 453 kts | 309° |
| 2026-05-04 02:44 | -31.76988 | 68.39126 | 37998 ft | 452 kts | 309° |
| 2026-05-04 02:44 | -31.72732 | 68.33681 | 37990 ft | 451 kts | 310° |
| 2026-05-04 02:45 | -31.68489 | 68.28262 | 37997 ft | 452 kts | 310° |
| 2026-05-04 02:45 | -31.64254 | 68.22862 | 38001 ft | 451 kts | 310° |
| 2026-05-04 02:46 | -31.60011 | 68.17456 | 37990 ft | 449 kts | 310° |
| 2026-05-04 02:46 | -31.55752 | 68.12038 | 38000 ft | 452 kts | 310° |
| 2026-05-04 02:47 | -31.51522 | 68.06667 | 38000 ft | 450 kts | 310° |
| 2026-05-04 02:47 | -31.47236 | 68.01228 | 37994 ft | 451 kts | 310° |
| 2026-05-04 02:48 | -31.42989 | 67.95848 | 38002 ft | 454 kts | 310° |
| 2026-05-04 02:48 | -31.38702 | 67.90430 | 38005 ft | 453 kts | 310° |
| 2026-05-04 02:49 | -31.34445 | 67.85050 | 37993 ft | 450 kts | 310° |
| 2026-05-04 02:49 | -31.30148 | 67.79631 | 37997 ft | 454 kts | 310° |
| 2026-05-04 02:50 | -31.25860 | 67.74234 | 37997 ft | 451 kts | 310° |
| 2026-05-04 02:50 | -31.21578 | 67.68848 | 37994 ft | 453 kts | 310° |
| 2026-05-04 02:51 | -31.17281 | 67.63452 | 37998 ft | 454 kts | 309° |
| 2026-05-04 02:51 | -31.12986 | 67.58068 | 37998 ft | 451 kts | 309° |
| 2026-05-04 02:52 | -31.08718 | 67.52728 | 37992 ft | 451 kts | 310° |
| 2026-05-04 02:52 | -31.04421 | 67.47353 | 37998 ft | 453 kts | 309° |
| 2026-05-04 02:53 | -31.00128 | 67.41994 | 38000 ft | 453 kts | 309° |
| 2026-05-04 02:53 | -30.95788 | 67.36583 | 38000 ft | 453 kts | 309° |
| 2026-05-04 02:54 | -30.91455 | 67.31187 | 38018 ft | 458 kts | 310° |
| 2026-05-04 02:54 | -30.87113 | 67.25791 | 38022 ft | 458 kts | 310° |
| 2026-05-04 02:55 | -30.80613 | 67.17723 | 38016 ft | 456 kts | 310° |
| 2026-05-04 02:56 | -30.76290 | 67.12369 | 38010 ft | 455 kts | 310° |
| 2026-05-04 02:56 | -30.71935 | 67.06978 | 38006 ft | 455 kts | 309° |
| 2026-05-04 02:57 | -30.67551 | 67.01563 | 38013 ft | 458 kts | 309° |
| 2026-05-04 02:57 | -30.63212 | 66.96213 | 38010 ft | 457 kts | 309° |
| 2026-05-04 02:58 | -30.58843 | 66.90830 | 38014 ft | 458 kts | 309° |
| 2026-05-04 02:58 | -30.54460 | 66.85437 | 38011 ft | 457 kts | 309° |
| 2026-05-04 02:59 | -30.50104 | 66.80087 | 38014 ft | 457 kts | 309° |
| 2026-05-04 02:59 | -30.45728 | 66.74720 | 38009 ft | 459 kts | 309° |
| 2026-05-04 03:00 | -30.41343 | 66.69347 | 38006 ft | 459 kts | 309° |
| 2026-05-04 03:00 | -30.36915 | 66.63930 | 38002 ft | 460 kts | 309° |
| 2026-05-04 03:01 | -30.32533 | 66.58581 | 37996 ft | 459 kts | 309° |
| 2026-05-04 03:01 | -30.28115 | 66.53189 | 37995 ft | 461 kts | 309° |
| 2026-05-04 03:02 | -30.23692 | 66.47803 | 37996 ft | 461 kts | 309° |
| 2026-05-04 03:02 | -30.19255 | 66.42404 | 38003 ft | 462 kts | 309° |
| 2026-05-04 03:03 | -30.14842 | 66.37044 | 38016 ft | 463 kts | 309° |
| 2026-05-04 03:03 | -30.10425 | 66.31687 | 38024 ft | 462 kts | 309° |
| 2026-05-04 03:04 | -30.05955 | 66.26270 | 37988 ft | 462 kts | 309° |
| 2026-05-04 03:04 | -30.03745 | 66.23598 | 38091 ft | 464 kts | 309° |
| 2026-05-04 03:04 | -30.01507 | 66.20888 | 38039 ft | 464 kts | 309° |
| 2026-05-04 03:05 | -29.97040 | 66.15493 | 38037 ft | 465 kts | 309° |
| 2026-05-04 03:05 | -29.92584 | 66.10120 | 38038 ft | 464 kts | 309° |
| 2026-05-04 03:06 | -29.88124 | 66.04744 | 38031 ft | 463 kts | 309° |
| 2026-05-04 03:06 | -29.83642 | 65.99350 | 38033 ft | 466 kts | 309° |
| 2026-05-04 03:07 | -29.79166 | 65.93975 | 38034 ft | 468 kts | 309° |
| 2026-05-04 03:07 | -29.74673 | 65.88587 | 38044 ft | 463 kts | 309° |
| 2026-05-04 03:08 | -29.70199 | 65.83227 | 38018 ft | 466 kts | 309° |
| 2026-05-04 03:08 | -29.65747 | 65.77899 | 38015 ft | 464 kts | 309° |
| 2026-05-04 03:09 | -29.61298 | 65.72586 | 38012 ft | 461 kts | 309° |
| 2026-05-04 03:09 | -29.56805 | 65.67223 | 38009 ft | 462 kts | 309° |
| 2026-05-04 03:10 | -29.52356 | 65.61925 | 38011 ft | 463 kts | 308° |
| 2026-05-04 03:10 | -29.47890 | 65.56606 | 38021 ft | 465 kts | 309° |
| 2026-05-04 03:11 | -29.43412 | 65.51287 | 38017 ft | 462 kts | 308° |
| 2026-05-04 03:11 | -29.38930 | 65.45967 | 38010 ft | 460 kts | 308° |
| 2026-05-04 03:12 | -29.34460 | 65.40668 | 38014 ft | 461 kts | 308° |
| 2026-05-04 03:12 | -29.30004 | 65.35390 | 38013 ft | 461 kts | 308° |
| 2026-05-04 03:13 | -29.25527 | 65.30100 | 38020 ft | 461 kts | 309° |
| 2026-05-04 03:13 | -29.21069 | 65.24834 | 38026 ft | 460 kts | 309° |
| 2026-05-04 03:14 | -29.16585 | 65.19545 | 38025 ft | 463 kts | 308° |
| 2026-05-04 03:14 | -29.12103 | 65.14264 | 38022 ft | 461 kts | 309° |
| 2026-05-04 03:15 | -29.07622 | 65.08987 | 38029 ft | 463 kts | 308° |
| 2026-05-04 03:15 | -29.03153 | 65.03728 | 38033 ft | 462 kts | 308° |
| 2026-05-04 03:16 | -28.98630 | 64.98463 | 38027 ft | 463 kts | 310° |
| 2026-05-04 03:16 | -28.93878 | 64.93484 | 38023 ft | 463 kts | 312° |
| 2026-05-04 03:17 | -28.89067 | 64.88492 | 38030 ft | 465 kts | 311° |
| 2026-05-04 03:17 | -28.84296 | 64.83518 | 38030 ft | 466 kts | 311° |
| 2026-05-04 03:18 | -28.79515 | 64.78534 | 38032 ft | 467 kts | 311° |
| 2026-05-04 03:18 | -28.74705 | 64.73520 | 38022 ft | 466 kts | 311° |
| 2026-05-04 03:19 | -28.69931 | 64.68542 | 38033 ft | 466 kts | 311° |
| 2026-05-04 03:19 | -28.65144 | 64.63557 | 38037 ft | 467 kts | 311° |
| 2026-05-04 03:20 | -28.60353 | 64.58573 | 38026 ft | 464 kts | 311° |
| 2026-05-04 03:20 | -28.55560 | 64.53590 | 38024 ft | 467 kts | 311° |
| 2026-05-04 03:21 | -28.50764 | 64.48610 | 38022 ft | 466 kts | 311° |
| 2026-05-04 03:21 | -28.45958 | 64.43623 | 38018 ft | 467 kts | 311° |
| 2026-05-04 03:22 | -28.41169 | 64.38662 | 38029 ft | 467 kts | 311° |
| 2026-05-04 03:22 | -28.36352 | 64.33675 | 38035 ft | 467 kts | 312° |
| 2026-05-04 03:23 | -28.31555 | 64.28718 | 38026 ft | 468 kts | 312° |
| 2026-05-04 03:23 | -28.26723 | 64.23733 | 38032 ft | 469 kts | 312° |
| 2026-05-04 03:24 | -28.21882 | 64.18741 | 38027 ft | 468 kts | 312° |
| 2026-05-04 03:24 | -28.17066 | 64.13783 | 38027 ft | 470 kts | 312° |
| 2026-05-04 03:25 | -28.12247 | 64.08828 | 38037 ft | 469 kts | 311° |
| 2026-05-04 03:25 | -28.07370 | 64.03816 | 38028 ft | 469 kts | 312° |
| 2026-05-04 03:26 | -28.02570 | 63.98894 | 38025 ft | 470 kts | 311° |
| 2026-05-04 03:26 | -27.97734 | 63.93940 | 38031 ft | 468 kts | 311° |
| 2026-05-04 03:27 | -27.92880 | 63.88970 | 38027 ft | 468 kts | 312° |
| 2026-05-04 03:27 | -27.88029 | 63.84011 | 38032 ft | 471 kts | 312° |
| 2026-05-04 03:28 | -27.83171 | 63.79053 | 38028 ft | 468 kts | 311° |
| 2026-05-04 03:28 | -27.78364 | 63.74153 | 38025 ft | 469 kts | 311° |
| 2026-05-04 03:29 | -27.73529 | 63.69231 | 38023 ft | 468 kts | 312° |
| 2026-05-04 03:29 | -27.68646 | 63.64262 | 38024 ft | 470 kts | 311° |
| 2026-05-04 03:30 | -27.63770 | 63.59310 | 38032 ft | 472 kts | 311° |
| 2026-05-04 03:30 | -27.58874 | 63.54345 | 38024 ft | 471 kts | 311° |
| 2026-05-04 03:31 | -27.54003 | 63.49411 | 38032 ft | 473 kts | 311° |
| 2026-05-04 03:31 | -27.49084 | 63.44435 | 38031 ft | 471 kts | 311° |
| 2026-05-04 03:32 | -27.44165 | 63.39465 | 38026 ft | 474 kts | 312° |
| 2026-05-04 03:32 | -27.39300 | 63.34555 | 38030 ft | 472 kts | 312° |
| 2026-05-04 03:33 | -27.34386 | 63.29602 | 38036 ft | 470 kts | 312° |
| 2026-05-04 03:33 | -27.29491 | 63.24675 | 38042 ft | 474 kts | 312° |
| 2026-05-04 03:34 | -27.24571 | 63.19729 | 38050 ft | 473 kts | 312° |
| 2026-05-04 03:34 | -27.19651 | 63.14785 | 38056 ft | 476 kts | 312° |
| 2026-05-04 03:35 | -27.14742 | 63.09863 | 38064 ft | 472 kts | 312° |
| 2026-05-04 03:35 | -27.09818 | 63.04927 | 38039 ft | 474 kts | 312° |
| 2026-05-04 03:36 | -27.04867 | 62.99974 | 38050 ft | 475 kts | 312° |
| 2026-05-04 03:36 | -26.99963 | 62.95075 | 38050 ft | 476 kts | 312° |
| 2026-05-04 03:37 | -26.95025 | 62.90149 | 38048 ft | 473 kts | 312° |
| 2026-05-04 03:37 | -26.90097 | 62.85233 | 38055 ft | 475 kts | 312° |
| 2026-05-04 03:38 | -26.85150 | 62.80307 | 38039 ft | 475 kts | 312° |
| 2026-05-04 03:38 | -26.80193 | 62.75377 | 38046 ft | 477 kts | 312° |
| 2026-05-04 03:39 | -26.75211 | 62.70429 | 38040 ft | 476 kts | 312° |
| 2026-05-04 03:39 | -26.70259 | 62.65517 | 38038 ft | 474 kts | 312° |
| 2026-05-04 03:40 | -26.65265 | 62.60567 | 38040 ft | 477 kts | 312° |
| 2026-05-04 03:40 | -26.60314 | 62.55667 | 38046 ft | 478 kts | 311° |
| 2026-05-04 03:41 | -26.55331 | 62.50743 | 38044 ft | 477 kts | 312° |
| 2026-05-04 03:41 | -26.50338 | 62.45813 | 38040 ft | 479 kts | 311° |
| 2026-05-04 03:42 | -26.45335 | 62.40880 | 38044 ft | 478 kts | 311° |
| 2026-05-04 03:42 | -26.40302 | 62.35920 | 38045 ft | 479 kts | 312° |
| 2026-05-04 03:43 | -26.35319 | 62.31018 | 38060 ft | 483 kts | 312° |
| 2026-05-04 03:43 | -26.30296 | 62.26086 | 38054 ft | 481 kts | 312° |
| 2026-05-04 03:44 | -26.25273 | 62.21160 | 38054 ft | 479 kts | 312° |
| 2026-05-04 03:44 | -26.20266 | 62.16249 | 38057 ft | 479 kts | 312° |
| 2026-05-04 03:45 | -26.15230 | 62.11315 | 38061 ft | 485 kts | 312° |
| 2026-05-04 03:45 | -26.10192 | 62.06393 | 38062 ft | 481 kts | 312° |
| 2026-05-04 03:46 | -26.05148 | 62.01466 | 38062 ft | 484 kts | 312° |
| 2026-05-04 03:46 | -26.00127 | 61.96565 | 38049 ft | 482 kts | 312° |
| 2026-05-04 03:47 | -25.95033 | 61.91605 | 38048 ft | 482 kts | 312° |
| 2026-05-04 03:47 | -25.89996 | 61.86720 | 38056 ft | 484 kts | 312° |
| 2026-05-04 03:48 | -25.84937 | 61.81820 | 38056 ft | 481 kts | 312° |
| 2026-05-04 03:48 | -25.75189 | 61.72370 | 38046 ft | 482 kts | 312° |
| 2026-05-04 03:49 | -25.65090 | 61.62594 | 38038 ft | 481 kts | 312° |
| 2026-05-04 03:49 | -25.54969 | 61.52803 | 38043 ft | 482 kts | 312° |
| 2026-05-04 03:50 | -25.44829 | 61.43030 | 38053 ft | 482 kts | 312° |
| 2026-05-04 03:50 | -25.34754 | 61.33330 | 38053 ft | 482 kts | 313° |
| 2026-05-04 03:51 | -25.24613 | 61.23594 | 38067 ft | 479 kts | 313° |
| 2026-05-04 03:51 | -25.14517 | 61.13918 | 38084 ft | 482 kts | 313° |
| 2026-05-04 03:52 | -25.04337 | 61.04174 | 38076 ft | 481 kts | 313° |
| 2026-05-04 03:52 | -24.94332 | 60.94454 | 38069 ft | 479 kts | 311° |
| 2026-05-04 03:53 | -24.84492 | 60.84470 | 38065 ft | 482 kts | 311° |
| 2026-05-04 03:53 | -24.74602 | 60.74543 | 38073 ft | 481 kts | 311° |
| 2026-05-04 03:54 | -24.64669 | 60.64636 | 38060 ft | 480 kts | 311° |
| 2026-05-04 03:54 | -24.54732 | 60.54736 | 38063 ft | 481 kts | 311° |
| 2026-05-04 03:55 | -24.44877 | 60.44924 | 38059 ft | 479 kts | 311° |
| 2026-05-04 03:55 | -24.34953 | 60.35067 | 38055 ft | 478 kts | 311° |
| 2026-05-04 03:56 | -24.25123 | 60.25332 | 38076 ft | 477 kts | 312° |
| 2026-05-04 03:56 | -24.15220 | 60.15530 | 38077 ft | 478 kts | 312° |
| 2026-05-04 03:57 | -24.05294 | 60.05737 | 38085 ft | 479 kts | 312° |
| 2026-05-04 03:57 | -23.95415 | 59.96011 | 38066 ft | 476 kts | 312° |
| 2026-05-04 03:58 | -23.80636 | 59.81490 | 38066 ft | 477 kts | 312° |
| 2026-05-04 03:58 | -23.70712 | 59.71769 | 38053 ft | 477 kts | 313° |
| 2026-05-04 03:59 | -23.60842 | 59.62124 | 38051 ft | 477 kts | 313° |
| 2026-05-04 03:59 | -23.50936 | 59.52464 | 38064 ft | 479 kts | 313° |
| 2026-05-04 04:00 | -23.40995 | 59.42792 | 38071 ft | 478 kts | 313° |
| 2026-05-04 04:00 | -23.31133 | 59.33212 | 38060 ft | 475 kts | 314° |
| 2026-05-04 04:01 | -23.21153 | 59.23541 | 38087 ft | 478 kts | 314° |
| 2026-05-04 04:01 | -23.11271 | 59.13974 | 38090 ft | 478 kts | 314° |
| 2026-05-04 04:02 | -23.01228 | 59.04287 | 38091 ft | 476 kts | 314° |
| 2026-05-04 04:02 | -22.91354 | 58.94775 | 38092 ft | 478 kts | 314° |
| 2026-05-04 04:03 | -22.81427 | 58.85231 | 38090 ft | 475 kts | 314° |
| 2026-05-04 04:03 | -22.71498 | 58.75705 | 38066 ft | 475 kts | 314° |
| 2026-05-04 04:04 | -22.58411 | 58.63184 | 38081 ft | 477 kts | 314° |
| 2026-05-04 04:04 | -22.18757 | 58.25436 | 38043 ft | 471 kts | 314° |
| 2026-05-04 04:05 | -21.93791 | 58.01810 | 38082 ft | 471 kts | 314° |
| 2026-05-04 04:05 | -21.88939 | 57.97238 | 38183 ft | 469 kts | 314° |
| 2026-05-04 04:06 | -21.83998 | 57.92593 | 38312 ft | 466 kts | 314° |
| 2026-05-04 04:06 | -21.79132 | 57.88021 | 38235 ft | 470 kts | 314° |
| 2026-05-04 04:07 | -21.76651 | 57.85688 | 37561 ft | 471 kts | 314° |
| 2026-05-04 04:07 | -21.74161 | 57.83347 | 36982 ft | 476 kts | 314° |
| 2026-05-04 04:07 | -21.71665 | 57.81001 | 36400 ft | 478 kts | 314° |
| 2026-05-04 04:07 | -21.69157 | 57.78648 | 35813 ft | 481 kts | 315° |
| 2026-05-04 04:08 | -21.66602 | 57.76251 | 35219 ft | 483 kts | 315° |
| 2026-05-04 04:08 | -21.64073 | 57.73877 | 34626 ft | 489 kts | 315° |
| 2026-05-04 04:08 | -21.61505 | 57.71469 | 34032 ft | 492 kts | 315° |
| 2026-05-04 04:08 | -21.58923 | 57.69049 | 33447 ft | 495 kts | 315° |
| 2026-05-04 04:09 | -21.56301 | 57.66591 | 32862 ft | 500 kts | 315° |
| 2026-05-04 04:09 | -21.53669 | 57.64125 | 32300 ft | 502 kts | 315° |
| 2026-05-04 04:09 | -21.51010 | 57.61636 | 31737 ft | 505 kts | 315° |
| 2026-05-04 04:09 | -21.48351 | 57.59147 | 31172 ft | 507 kts | 315° |
| 2026-05-04 04:10 | -21.45704 | 57.56672 | 30612 ft | 509 kts | 316° |
| 2026-05-04 04:10 | -21.43021 | 57.54162 | 30038 ft | 513 kts | 316° |
| 2026-05-04 04:10 | -21.35289 | 57.46943 | 28425 ft | 513 kts | 316° |
| 2026-05-04 04:10 | -21.13725 | 57.26875 | 24208 ft | 503 kts | 316° |
| 2026-05-04 04:11 | -21.02239 | 57.16248 | 21931 ft | 493 kts | 320° |
| 2026-05-04 04:11 | -20.99305 | 57.14357 | 21296 ft | 489 kts | 334° |
| 2026-05-04 04:11 | -20.96047 | 57.13331 | 20695 ft | 484 kts | 350° |
| 2026-05-04 04:11 | -20.92733 | 57.13268 | 20125 ft | 478 kts | 6° |
| 2026-05-04 04:12 | -20.89506 | 57.14170 | 19559 ft | 471 kts | 22° |
| 2026-05-04 04:12 | -20.86712 | 57.15937 | 19009 ft | 464 kts | 39° |
| 2026-05-04 04:12 | -20.84406 | 57.18306 | 18493 ft | 455 kts | 46° |
| 2026-05-04 04:12 | -20.82181 | 57.20689 | 17971 ft | 451 kts | 45° |
| 2026-05-04 04:13 | -20.79981 | 57.23069 | 17444 ft | 450 kts | 47° |
| 2026-05-04 04:13 | -20.77807 | 57.25520 | 16926 ft | 447 kts | 47° |
| 2026-05-04 04:13 | -20.75687 | 57.27931 | 16413 ft | 443 kts | 47° |
| 2026-05-04 04:13 | -20.73593 | 57.30325 | 15910 ft | 440 kts | 47° |
| 2026-05-04 04:14 | -20.71513 | 57.32695 | 15405 ft | 436 kts | 47° |
| 2026-05-04 04:14 | -20.69375 | 57.34982 | 14868 ft | 432 kts | 40° |
| 2026-05-04 04:14 | -20.66817 | 57.36678 | 14334 ft | 428 kts | 22° |
| 2026-05-04 04:14 | -20.63983 | 57.37500 | 13828 ft | 422 kts | 8° |
| 2026-05-04 04:15 | -20.61074 | 57.37850 | 13340 ft | 419 kts | 3° |
| 2026-05-04 04:15 | -20.58175 | 57.37744 | 12814 ft | 413 kts | 346° |
| 2026-05-04 04:15 | -20.55489 | 57.36664 | 12337 ft | 406 kts | 330° |
| 2026-05-04 04:15 | -20.53038 | 57.35239 | 11865 ft | 404 kts | 329° |
| 2026-05-04 04:16 | -20.50540 | 57.33867 | 11356 ft | 402 kts | 332° |
| 2026-05-04 04:16 | -20.47881 | 57.32888 | 10930 ft | 397 kts | 349° |
| 2026-05-04 04:16 | -20.45202 | 57.32668 | 10690 ft | 373 kts | 357° |
| 2026-05-04 04:16 | -20.42702 | 57.32643 | 10472 ft | 344 kts | 5° |
| 2026-05-04 04:17 | -20.40461 | 57.33202 | 10390 ft | 318 kts | 18° |
| 2026-05-04 04:17 | -20.38362 | 57.33917 | 10190 ft | 311 kts | 17° |
| 2026-05-04 04:17 | -20.36297 | 57.34581 | 9800 ft | 314 kts | 16° |
| 2026-05-04 04:17 | -20.34213 | 57.35317 | 9101 ft | 314 kts | 28° |
| 2026-05-04 04:18 | -20.32463 | 57.36629 | 8266 ft | 309 kts | 50° |
| 2026-05-04 04:18 | -20.31339 | 57.38532 | 7416 ft | 299 kts | 75° |
| 2026-05-04 04:18 | -20.31084 | 57.40660 | 6558 ft | 290 kts | 99° |
| 2026-05-04 04:18 | -20.31642 | 57.42672 | 5696 ft | 281 kts | 114° |
| 2026-05-04 04:19 | -20.32294 | 57.44555 | 5118 ft | 269 kts | 110° |
| 2026-05-04 04:19 | -20.32899 | 57.46427 | 4538 ft | 258 kts | 112° |
| 2026-05-04 04:19 | -20.33508 | 57.48137 | 4216 ft | 240 kts | 111° |
| 2026-05-04 04:19 | -20.34067 | 57.49744 | 3971 ft | 225 kts | 116° |
| 2026-05-04 04:20 | -20.34761 | 57.51227 | 3797 ft | 218 kts | 118° |
| 2026-05-04 04:20 | -20.35451 | 57.52635 | 3613 ft | 214 kts | 118° |
| 2026-05-04 04:20 | -20.36116 | 57.54022 | 3396 ft | 206 kts | 117° |
| 2026-05-04 04:20 | -20.36756 | 57.55376 | 3050 ft | 197 kts | 117° |
| 2026-05-04 04:21 | -20.37362 | 57.56644 | 2726 ft | 190 kts | 117° |
| 2026-05-04 04:21 | -20.37950 | 57.57874 | 2445 ft | 180 kts | 117° |
| 2026-05-04 04:21 | -20.38496 | 57.59006 | 2182 ft | 171 kts | 117° |
| 2026-05-04 04:21 | -20.39031 | 57.60116 | 1909 ft | 164 kts | 117° |
| 2026-05-04 04:22 | -20.39543 | 57.61179 | 1650 ft | 158 kts | 117° |
| 2026-05-04 04:22 | -20.40044 | 57.62216 | 1394 ft | 154 kts | 118° |
| 2026-05-04 04:22 | -20.40530 | 57.63216 | 1147 ft | 151 kts | 117° |
| 2026-05-04 04:22 | -20.41015 | 57.64219 | 900 ft | 149 kts | 117° |
| 2026-05-04 04:23 | -20.41485 | 57.65180 | 678 ft | 146 kts | 117° |
| 2026-05-04 04:23 | -20.41954 | 57.66147 | 459 ft | 145 kts | 117° |
| 2026-05-04 04:23 | -20.42415 | 57.67097 | 262 ft | 143 kts | 117° |
| 2026-05-04 04:23 | -20.42843 | 57.67987 | 187 ft | 106 kts | 117° |
| 2026-05-04 04:24 | -20.43029 | 57.68366 | 173 ft | 24 kts | 117° |
| 2026-05-04 04:24 | -20.43110 | 57.68455 | 171 ft | 17 kts | 180° |
| 2026-05-04 04:24 | -20.43201 | 57.68396 | 174 ft | 14 kts | 257° |
| 2026-05-04 04:24 | -20.43177 | 57.68296 | 178 ft | 13 kts | 296° |
| 2026-05-04 04:25 | -20.43137 | 57.68211 | 181 ft | 12 kts | 296° |
| 2026-05-04 04:25 | -20.43099 | 57.68129 | 183 ft | 11 kts | 295° |
| 2026-05-04 04:25 | -20.43063 | 57.68050 | 186 ft | 12 kts | 295° |
| 2026-05-04 04:25 | -20.43028 | 57.67970 | 189 ft | 11 kts | 295° |
| 2026-05-04 04:26 | -20.42996 | 57.67897 | 193 ft | 10 kts | 295° |
| 2026-05-04 04:26 | -20.42967 | 57.67834 | 196 ft | 8 kts | 296° |
| 2026-05-04 04:26 | -20.42939 | 57.67774 | 197 ft | 9 kts | 296° |
| 2026-05-04 04:26 | -20.42911 | 57.67713 | 199 ft | 9 kts | 296° |
| 2026-05-04 04:27 | -20.42881 | 57.67650 | 201 ft | 9 kts | 296° |
| 2026-05-04 04:27 | -20.42868 | 57.67577 | 202 ft | 10 kts | 249° |
| 2026-05-04 04:27 | -20.42904 | 57.67506 | 204 ft | 10 kts | 242° |
| 2026-05-04 04:27 | -20.42938 | 57.67439 | 207 ft | 9 kts | 254° |
| 2026-05-04 04:28 | -20.42918 | 57.67382 | 209 ft | 8 kts | 322° |
| 2026-05-04 04:28 | -20.42896 | 57.67366 | 209 ft | 0 kts | 328° |